<?xml version="1.0" encoding="UTF-8" standalone="no" ?>
<gpx xmlns="http://www.topografix.com/GPX/1/1" xmlns:xsi="http://www.w3.org/2001/XMLSchema-instance" xsi:schemaLocation="http://www.topografix.com/GPX/1/1 http://www.topografix.com/GPX/1/1/gpx.xsd" version="1.1" creator="VisuGPX - https://www.visugpx.com">
  <metadata>
    <name>Les 4 lacs </name>
  </metadata>
  <trk>
    <name><![CDATA[Les 4 lacs _2]]></name>
    <trkseg>
      <trkpt lat="43.40191" lon="2.1794">
        <ele>666.33</ele>
        <time>2015-12-19T09:42:43Z</time>
      </trkpt>
      <trkpt lat="43.40173" lon="2.17952">
        <ele>667.29</ele>
        <time>2015-12-19T09:42:50Z</time>
      </trkpt>
      <trkpt lat="43.40156" lon="2.17959">
        <ele>667.77</ele>
        <time>2015-12-19T09:42:56Z</time>
      </trkpt>
      <trkpt lat="43.4014" lon="2.1797">
        <ele>668.25</ele>
        <time>2015-12-19T09:43:02Z</time>
      </trkpt>
      <trkpt lat="43.40139" lon="2.17973">
        <ele>668.73</ele>
        <time>2015-12-19T09:43:03Z</time>
      </trkpt>
      <trkpt lat="43.4014" lon="2.17976">
        <ele>668.73</ele>
        <time>2015-12-19T09:43:04Z</time>
      </trkpt>
      <trkpt lat="43.40142" lon="2.17978">
        <ele>669.22</ele>
        <time>2015-12-19T09:43:05Z</time>
      </trkpt>
      <trkpt lat="43.40144" lon="2.1798">
        <ele>667.77</ele>
        <time>2015-12-19T09:43:06Z</time>
      </trkpt>
      <trkpt lat="43.40147" lon="2.17982">
        <ele>668.25</ele>
        <time>2015-12-19T09:43:07Z</time>
      </trkpt>
      <trkpt lat="43.4017" lon="2.17996">
        <ele>668.73</ele>
        <time>2015-12-19T09:43:15Z</time>
      </trkpt>
      <trkpt lat="43.40198" lon="2.18014">
        <ele>669.7</ele>
        <time>2015-12-19T09:43:23Z</time>
      </trkpt>
      <trkpt lat="43.40236" lon="2.18034">
        <ele>670.66</ele>
        <time>2015-12-19T09:43:31Z</time>
      </trkpt>
      <trkpt lat="43.4024" lon="2.18037">
        <ele>670.66</ele>
        <time>2015-12-19T09:43:32Z</time>
      </trkpt>
      <trkpt lat="43.40244" lon="2.18041">
        <ele>670.66</ele>
        <time>2015-12-19T09:43:33Z</time>
      </trkpt>
      <trkpt lat="43.40247" lon="2.18045">
        <ele>671.62</ele>
        <time>2015-12-19T09:43:34Z</time>
      </trkpt>
      <trkpt lat="43.40251" lon="2.1805">
        <ele>671.62</ele>
        <time>2015-12-19T09:43:35Z</time>
      </trkpt>
      <trkpt lat="43.40254" lon="2.18055">
        <ele>671.62</ele>
        <time>2015-12-19T09:43:36Z</time>
      </trkpt>
      <trkpt lat="43.40269" lon="2.18081">
        <ele>673.06</ele>
        <time>2015-12-19T09:43:41Z</time>
      </trkpt>
      <trkpt lat="43.40271" lon="2.18087">
        <ele>672.58</ele>
        <time>2015-12-19T09:43:42Z</time>
      </trkpt>
      <trkpt lat="43.40277" lon="2.18097">
        <ele>673.06</ele>
        <time>2015-12-19T09:43:44Z</time>
      </trkpt>
      <trkpt lat="43.40279" lon="2.18101">
        <ele>673.06</ele>
        <time>2015-12-19T09:43:45Z</time>
      </trkpt>
      <trkpt lat="43.40283" lon="2.18105">
        <ele>673.54</ele>
        <time>2015-12-19T09:43:46Z</time>
      </trkpt>
      <trkpt lat="43.40287" lon="2.18108">
        <ele>674.5</ele>
        <time>2015-12-19T09:43:47Z</time>
      </trkpt>
      <trkpt lat="43.40291" lon="2.18111">
        <ele>674.02</ele>
        <time>2015-12-19T09:43:48Z</time>
      </trkpt>
      <trkpt lat="43.40295" lon="2.18113">
        <ele>675.46</ele>
        <time>2015-12-19T09:43:49Z</time>
      </trkpt>
      <trkpt lat="43.40326" lon="2.18124">
        <ele>676.91</ele>
        <time>2015-12-19T09:43:57Z</time>
      </trkpt>
      <trkpt lat="43.40356" lon="2.18128">
        <ele>679.79</ele>
        <time>2015-12-19T09:44:06Z</time>
      </trkpt>
      <trkpt lat="43.40374" lon="2.18126">
        <ele>680.75</ele>
        <time>2015-12-19T09:44:12Z</time>
      </trkpt>
      <trkpt lat="43.40404" lon="2.1812">
        <ele>683.63</ele>
        <time>2015-12-19T09:44:22Z</time>
      </trkpt>
      <trkpt lat="43.40411" lon="2.18117">
        <ele>684.6</ele>
        <time>2015-12-19T09:44:25Z</time>
      </trkpt>
      <trkpt lat="43.40417" lon="2.18113">
        <ele>685.08</ele>
        <time>2015-12-19T09:44:29Z</time>
      </trkpt>
      <trkpt lat="43.40416" lon="2.18113">
        <ele>684.12</ele>
        <time>2015-12-19T09:44:50Z</time>
      </trkpt>
      <trkpt lat="43.40415" lon="2.18111">
        <ele>684.12</ele>
        <time>2015-12-19T09:45:49Z</time>
      </trkpt>
      <trkpt lat="43.40417" lon="2.18114">
        <ele>685.08</ele>
        <time>2015-12-19T09:46:02Z</time>
      </trkpt>
      <trkpt lat="43.40417" lon="2.18125">
        <ele>684.6</ele>
        <time>2015-12-19T09:46:06Z</time>
      </trkpt>
      <trkpt lat="43.40404" lon="2.18143">
        <ele>686.04</ele>
        <time>2015-12-19T09:46:12Z</time>
      </trkpt>
      <trkpt lat="43.40394" lon="2.18165">
        <ele>688.44</ele>
        <time>2015-12-19T09:46:18Z</time>
      </trkpt>
      <trkpt lat="43.40382" lon="2.18191">
        <ele>690.36</ele>
        <time>2015-12-19T09:46:25Z</time>
      </trkpt>
      <trkpt lat="43.4037" lon="2.18222">
        <ele>692.77</ele>
        <time>2015-12-19T09:46:33Z</time>
      </trkpt>
      <trkpt lat="43.40354" lon="2.18251">
        <ele>693.25</ele>
        <time>2015-12-19T09:46:41Z</time>
      </trkpt>
      <trkpt lat="43.40347" lon="2.18259">
        <ele>694.69</ele>
        <time>2015-12-19T09:46:44Z</time>
      </trkpt>
      <trkpt lat="43.40336" lon="2.18271">
        <ele>695.65</ele>
        <time>2015-12-19T09:46:49Z</time>
      </trkpt>
      <trkpt lat="43.40328" lon="2.18282">
        <ele>697.09</ele>
        <time>2015-12-19T09:46:53Z</time>
      </trkpt>
      <trkpt lat="43.4031" lon="2.18306">
        <ele>698.53</ele>
        <time>2015-12-19T09:47:01Z</time>
      </trkpt>
      <trkpt lat="43.40304" lon="2.18336">
        <ele>699.02</ele>
        <time>2015-12-19T09:47:09Z</time>
      </trkpt>
      <trkpt lat="43.40305" lon="2.18365">
        <ele>701.9</ele>
        <time>2015-12-19T09:47:17Z</time>
      </trkpt>
      <trkpt lat="43.40305" lon="2.18368">
        <ele>701.9</ele>
        <time>2015-12-19T09:47:18Z</time>
      </trkpt>
      <trkpt lat="43.40307" lon="2.18389">
        <ele>701.42</ele>
        <time>2015-12-19T09:47:25Z</time>
      </trkpt>
      <trkpt lat="43.40314" lon="2.18419">
        <ele>702.38</ele>
        <time>2015-12-19T09:47:33Z</time>
      </trkpt>
      <trkpt lat="43.40319" lon="2.18452">
        <ele>702.86</ele>
        <time>2015-12-19T09:47:41Z</time>
      </trkpt>
      <trkpt lat="43.40323" lon="2.18493">
        <ele>703.34</ele>
        <time>2015-12-19T09:47:50Z</time>
      </trkpt>
      <trkpt lat="43.40328" lon="2.18533">
        <ele>704.3</ele>
        <time>2015-12-19T09:47:59Z</time>
      </trkpt>
      <trkpt lat="43.40335" lon="2.18582">
        <ele>707.19</ele>
        <time>2015-12-19T09:48:10Z</time>
      </trkpt>
      <trkpt lat="43.4034" lon="2.18621">
        <ele>707.67</ele>
        <time>2015-12-19T09:48:20Z</time>
      </trkpt>
      <trkpt lat="43.40352" lon="2.1865">
        <ele>710.07</ele>
        <time>2015-12-19T09:48:29Z</time>
      </trkpt>
      <trkpt lat="43.40368" lon="2.18667">
        <ele>711.03</ele>
        <time>2015-12-19T09:48:37Z</time>
      </trkpt>
      <trkpt lat="43.40386" lon="2.18676">
        <ele>712.95</ele>
        <time>2015-12-19T09:48:45Z</time>
      </trkpt>
      <trkpt lat="43.40401" lon="2.18691">
        <ele>713.44</ele>
        <time>2015-12-19T09:48:52Z</time>
      </trkpt>
      <trkpt lat="43.40416" lon="2.18714">
        <ele>715.36</ele>
        <time>2015-12-19T09:49:00Z</time>
      </trkpt>
      <trkpt lat="43.40424" lon="2.18737">
        <ele>716.32</ele>
        <time>2015-12-19T09:49:07Z</time>
      </trkpt>
      <trkpt lat="43.40432" lon="2.18761">
        <ele>716.8</ele>
        <time>2015-12-19T09:49:14Z</time>
      </trkpt>
      <trkpt lat="43.40436" lon="2.1877">
        <ele>718.24</ele>
        <time>2015-12-19T09:49:17Z</time>
      </trkpt>
      <trkpt lat="43.40452" lon="2.18783">
        <ele>718.72</ele>
        <time>2015-12-19T09:49:24Z</time>
      </trkpt>
      <trkpt lat="43.40468" lon="2.18788">
        <ele>720.16</ele>
        <time>2015-12-19T09:49:31Z</time>
      </trkpt>
      <trkpt lat="43.40472" lon="2.18788">
        <ele>721.13</ele>
        <time>2015-12-19T09:49:33Z</time>
      </trkpt>
      <trkpt lat="43.40491" lon="2.18794">
        <ele>722.09</ele>
        <time>2015-12-19T09:49:41Z</time>
      </trkpt>
      <trkpt lat="43.4051" lon="2.18806">
        <ele>724.01</ele>
        <time>2015-12-19T09:49:50Z</time>
      </trkpt>
      <trkpt lat="43.40515" lon="2.1881">
        <ele>724.49</ele>
        <time>2015-12-19T09:49:53Z</time>
      </trkpt>
      <trkpt lat="43.40516" lon="2.18811">
        <ele>724.49</ele>
        <time>2015-12-19T09:49:54Z</time>
      </trkpt>
      <trkpt lat="43.40531" lon="2.18818">
        <ele>724.97</ele>
        <time>2015-12-19T09:50:02Z</time>
      </trkpt>
      <trkpt lat="43.40549" lon="2.18826">
        <ele>725.93</ele>
        <time>2015-12-19T09:50:10Z</time>
      </trkpt>
      <trkpt lat="43.40569" lon="2.18839">
        <ele>727.86</ele>
        <time>2015-12-19T09:50:19Z</time>
      </trkpt>
      <trkpt lat="43.40581" lon="2.18853">
        <ele>728.34</ele>
        <time>2015-12-19T09:50:25Z</time>
      </trkpt>
      <trkpt lat="43.40587" lon="2.18875">
        <ele>729.3</ele>
        <time>2015-12-19T09:50:32Z</time>
      </trkpt>
      <trkpt lat="43.40592" lon="2.18908">
        <ele>729.3</ele>
        <time>2015-12-19T09:50:40Z</time>
      </trkpt>
      <trkpt lat="43.40604" lon="2.18932">
        <ele>730.26</ele>
        <time>2015-12-19T09:50:47Z</time>
      </trkpt>
      <trkpt lat="43.40619" lon="2.18947">
        <ele>730.26</ele>
        <time>2015-12-19T09:50:53Z</time>
      </trkpt>
      <trkpt lat="43.4064" lon="2.18958">
        <ele>730.74</ele>
        <time>2015-12-19T09:51:01Z</time>
      </trkpt>
      <trkpt lat="43.40648" lon="2.18968">
        <ele>731.22</ele>
        <time>2015-12-19T09:51:05Z</time>
      </trkpt>
      <trkpt lat="43.40628" lon="2.19019">
        <ele>734.1</ele>
        <time>2015-12-19T09:56:26Z</time>
      </trkpt>
      <trkpt lat="43.40625" lon="2.19051">
        <ele>735.55</ele>
        <time>2015-12-19T09:56:34Z</time>
      </trkpt>
      <trkpt lat="43.40623" lon="2.19094">
        <ele>733.14</ele>
        <time>2015-12-19T09:56:41Z</time>
      </trkpt>
      <trkpt lat="43.4062" lon="2.19116">
        <ele>730.74</ele>
        <time>2015-12-19T09:56:44Z</time>
      </trkpt>
      <trkpt lat="43.40619" lon="2.19124">
        <ele>731.22</ele>
        <time>2015-12-19T09:56:45Z</time>
      </trkpt>
      <trkpt lat="43.40618" lon="2.19131">
        <ele>730.26</ele>
        <time>2015-12-19T09:56:46Z</time>
      </trkpt>
      <trkpt lat="43.40616" lon="2.19138">
        <ele>730.26</ele>
        <time>2015-12-19T09:56:47Z</time>
      </trkpt>
      <trkpt lat="43.40614" lon="2.19146">
        <ele>729.78</ele>
        <time>2015-12-19T09:56:48Z</time>
      </trkpt>
      <trkpt lat="43.40604" lon="2.19183">
        <ele>729.78</ele>
        <time>2015-12-19T09:56:54Z</time>
      </trkpt>
      <trkpt lat="43.40592" lon="2.19217">
        <ele>728.82</ele>
        <time>2015-12-19T09:57:00Z</time>
      </trkpt>
      <trkpt lat="43.40584" lon="2.19245">
        <ele>728.82</ele>
        <time>2015-12-19T09:57:04Z</time>
      </trkpt>
      <trkpt lat="43.40582" lon="2.19252">
        <ele>728.82</ele>
        <time>2015-12-19T09:57:05Z</time>
      </trkpt>
      <trkpt lat="43.40578" lon="2.19266">
        <ele>727.37</ele>
        <time>2015-12-19T09:57:07Z</time>
      </trkpt>
      <trkpt lat="43.40571" lon="2.19297">
        <ele>725.93</ele>
        <time>2015-12-19T09:57:11Z</time>
      </trkpt>
      <trkpt lat="43.40559" lon="2.19358">
        <ele>724.97</ele>
        <time>2015-12-19T09:57:18Z</time>
      </trkpt>
      <trkpt lat="43.40557" lon="2.19365">
        <ele>724.97</ele>
        <time>2015-12-19T09:57:19Z</time>
      </trkpt>
      <trkpt lat="43.40554" lon="2.19372">
        <ele>724.49</ele>
        <time>2015-12-19T09:57:20Z</time>
      </trkpt>
      <trkpt lat="43.4055" lon="2.19377">
        <ele>724.49</ele>
        <time>2015-12-19T09:57:21Z</time>
      </trkpt>
      <trkpt lat="43.40547" lon="2.19382">
        <ele>724.97</ele>
        <time>2015-12-19T09:57:22Z</time>
      </trkpt>
      <trkpt lat="43.40542" lon="2.19385">
        <ele>724.01</ele>
        <time>2015-12-19T09:57:23Z</time>
      </trkpt>
      <trkpt lat="43.40537" lon="2.19388">
        <ele>725.45</ele>
        <time>2015-12-19T09:57:24Z</time>
      </trkpt>
      <trkpt lat="43.40533" lon="2.1939">
        <ele>725.45</ele>
        <time>2015-12-19T09:57:25Z</time>
      </trkpt>
      <trkpt lat="43.40504" lon="2.19398">
        <ele>727.37</ele>
        <time>2015-12-19T09:57:32Z</time>
      </trkpt>
      <trkpt lat="43.40479" lon="2.19403">
        <ele>728.34</ele>
        <time>2015-12-19T09:57:39Z</time>
      </trkpt>
      <trkpt lat="43.4045" lon="2.19415">
        <ele>729.78</ele>
        <time>2015-12-19T09:57:47Z</time>
      </trkpt>
      <trkpt lat="43.40421" lon="2.19437">
        <ele>730.74</ele>
        <time>2015-12-19T09:57:55Z</time>
      </trkpt>
      <trkpt lat="43.4041" lon="2.19446">
        <ele>731.22</ele>
        <time>2015-12-19T09:57:58Z</time>
      </trkpt>
      <trkpt lat="43.40407" lon="2.19449">
        <ele>730.26</ele>
        <time>2015-12-19T09:57:59Z</time>
      </trkpt>
      <trkpt lat="43.40403" lon="2.19452">
        <ele>731.22</ele>
        <time>2015-12-19T09:58:00Z</time>
      </trkpt>
      <trkpt lat="43.40399" lon="2.19455">
        <ele>731.22</ele>
        <time>2015-12-19T09:58:01Z</time>
      </trkpt>
      <trkpt lat="43.40395" lon="2.19458">
        <ele>730.74</ele>
        <time>2015-12-19T09:58:02Z</time>
      </trkpt>
      <trkpt lat="43.40392" lon="2.19461">
        <ele>731.22</ele>
        <time>2015-12-19T09:58:03Z</time>
      </trkpt>
      <trkpt lat="43.4036" lon="2.19486">
        <ele>731.22</ele>
        <time>2015-12-19T09:58:12Z</time>
      </trkpt>
      <trkpt lat="43.40347" lon="2.195">
        <ele>731.7</ele>
        <time>2015-12-19T09:58:16Z</time>
      </trkpt>
      <trkpt lat="43.40317" lon="2.1953">
        <ele>731.7</ele>
        <time>2015-12-19T09:58:24Z</time>
      </trkpt>
      <trkpt lat="43.40277" lon="2.19567">
        <ele>732.18</ele>
        <time>2015-12-19T09:58:34Z</time>
      </trkpt>
      <trkpt lat="43.40252" lon="2.19609">
        <ele>732.66</ele>
        <time>2015-12-19T09:59:52Z</time>
      </trkpt>
      <trkpt lat="43.40251" lon="2.19612">
        <ele>732.18</ele>
        <time>2015-12-19T09:59:53Z</time>
      </trkpt>
      <trkpt lat="43.4025" lon="2.19614">
        <ele>732.66</ele>
        <time>2015-12-19T09:59:54Z</time>
      </trkpt>
      <trkpt lat="43.40248" lon="2.19616">
        <ele>732.18</ele>
        <time>2015-12-19T09:59:55Z</time>
      </trkpt>
      <trkpt lat="43.40246" lon="2.19618">
        <ele>732.66</ele>
        <time>2015-12-19T09:59:56Z</time>
      </trkpt>
      <trkpt lat="43.40237" lon="2.19636">
        <ele>733.62</ele>
        <time>2015-12-19T10:00:02Z</time>
      </trkpt>
      <trkpt lat="43.4023" lon="2.19653">
        <ele>732.66</ele>
        <time>2015-12-19T10:00:08Z</time>
      </trkpt>
      <trkpt lat="43.40221" lon="2.19674">
        <ele>733.14</ele>
        <time>2015-12-19T10:00:15Z</time>
      </trkpt>
      <trkpt lat="43.40205" lon="2.19696">
        <ele>731.7</ele>
        <time>2015-12-19T10:00:21Z</time>
      </trkpt>
      <trkpt lat="43.40183" lon="2.19732">
        <ele>734.1</ele>
        <time>2015-12-19T10:00:29Z</time>
      </trkpt>
      <trkpt lat="43.40174" lon="2.19746">
        <ele>733.14</ele>
        <time>2015-12-19T10:00:32Z</time>
      </trkpt>
      <trkpt lat="43.40172" lon="2.19752">
        <ele>733.14</ele>
        <time>2015-12-19T10:00:33Z</time>
      </trkpt>
      <trkpt lat="43.40152" lon="2.19793">
        <ele>733.14</ele>
        <time>2015-12-19T10:00:41Z</time>
      </trkpt>
      <trkpt lat="43.40132" lon="2.19815">
        <ele>735.07</ele>
        <time>2015-12-19T10:00:47Z</time>
      </trkpt>
      <trkpt lat="43.40117" lon="2.19835">
        <ele>735.07</ele>
        <time>2015-12-19T10:00:53Z</time>
      </trkpt>
      <trkpt lat="43.40102" lon="2.19861">
        <ele>733.14</ele>
        <time>2015-12-19T10:01:00Z</time>
      </trkpt>
      <trkpt lat="43.40099" lon="2.19864">
        <ele>733.14</ele>
        <time>2015-12-19T10:01:01Z</time>
      </trkpt>
      <trkpt lat="43.40097" lon="2.19866">
        <ele>733.14</ele>
        <time>2015-12-19T10:01:02Z</time>
      </trkpt>
      <trkpt lat="43.40095" lon="2.19869">
        <ele>732.66</ele>
        <time>2015-12-19T10:01:03Z</time>
      </trkpt>
      <trkpt lat="43.40093" lon="2.19873">
        <ele>733.14</ele>
        <time>2015-12-19T10:01:04Z</time>
      </trkpt>
      <trkpt lat="43.40091" lon="2.19876">
        <ele>732.18</ele>
        <time>2015-12-19T10:01:05Z</time>
      </trkpt>
      <trkpt lat="43.4009" lon="2.19878">
        <ele>731.7</ele>
        <time>2015-12-19T10:01:06Z</time>
      </trkpt>
      <trkpt lat="43.40076" lon="2.199">
        <ele>732.18</ele>
        <time>2015-12-19T10:01:11Z</time>
      </trkpt>
      <trkpt lat="43.40069" lon="2.1991">
        <ele>730.26</ele>
        <time>2015-12-19T10:01:13Z</time>
      </trkpt>
      <trkpt lat="43.40062" lon="2.19921">
        <ele>729.78</ele>
        <time>2015-12-19T10:01:15Z</time>
      </trkpt>
      <trkpt lat="43.40058" lon="2.19926">
        <ele>728.82</ele>
        <time>2015-12-19T10:01:16Z</time>
      </trkpt>
      <trkpt lat="43.40051" lon="2.19936">
        <ele>726.89</ele>
        <time>2015-12-19T10:01:18Z</time>
      </trkpt>
      <trkpt lat="43.40048" lon="2.19941">
        <ele>726.41</ele>
        <time>2015-12-19T10:01:19Z</time>
      </trkpt>
      <trkpt lat="43.40045" lon="2.19947">
        <ele>724.97</ele>
        <time>2015-12-19T10:01:20Z</time>
      </trkpt>
      <trkpt lat="43.40039" lon="2.19959">
        <ele>724.49</ele>
        <time>2015-12-19T10:01:22Z</time>
      </trkpt>
      <trkpt lat="43.40032" lon="2.19971">
        <ele>721.13</ele>
        <time>2015-12-19T10:01:25Z</time>
      </trkpt>
      <trkpt lat="43.40029" lon="2.19975">
        <ele>721.13</ele>
        <time>2015-12-19T10:01:26Z</time>
      </trkpt>
      <trkpt lat="43.40024" lon="2.19979">
        <ele>718.72</ele>
        <time>2015-12-19T10:01:28Z</time>
      </trkpt>
      <trkpt lat="43.40019" lon="2.19986">
        <ele>715.36</ele>
        <time>2015-12-19T10:01:30Z</time>
      </trkpt>
      <trkpt lat="43.40003" lon="2.19999">
        <ele>711.99</ele>
        <time>2015-12-19T10:01:35Z</time>
      </trkpt>
      <trkpt lat="43.39999" lon="2.2">
        <ele>711.99</ele>
        <time>2015-12-19T10:01:36Z</time>
      </trkpt>
      <trkpt lat="43.39993" lon="2.20006">
        <ele>712.47</ele>
        <time>2015-12-19T10:01:38Z</time>
      </trkpt>
      <trkpt lat="43.39991" lon="2.20011">
        <ele>713.44</ele>
        <time>2015-12-19T10:01:39Z</time>
      </trkpt>
      <trkpt lat="43.39989" lon="2.20017">
        <ele>713.44</ele>
        <time>2015-12-19T10:01:40Z</time>
      </trkpt>
      <trkpt lat="43.39988" lon="2.20022">
        <ele>713.44</ele>
        <time>2015-12-19T10:01:41Z</time>
      </trkpt>
      <trkpt lat="43.39987" lon="2.20026">
        <ele>712.95</ele>
        <time>2015-12-19T10:01:42Z</time>
      </trkpt>
      <trkpt lat="43.39988" lon="2.2003">
        <ele>712.47</ele>
        <time>2015-12-19T10:01:43Z</time>
      </trkpt>
      <trkpt lat="43.39988" lon="2.20032">
        <ele>711.99</ele>
        <time>2015-12-19T10:01:44Z</time>
      </trkpt>
      <trkpt lat="43.3999" lon="2.20036">
        <ele>712.95</ele>
        <time>2015-12-19T10:01:49Z</time>
      </trkpt>
      <trkpt lat="43.39988" lon="2.20038">
        <ele>712.47</ele>
        <time>2015-12-19T10:01:52Z</time>
      </trkpt>
      <trkpt lat="43.39983" lon="2.20046">
        <ele>712.95</ele>
        <time>2015-12-19T10:02:00Z</time>
      </trkpt>
      <trkpt lat="43.39982" lon="2.20047">
        <ele>712.47</ele>
        <time>2015-12-19T10:02:06Z</time>
      </trkpt>
      <trkpt lat="43.39985" lon="2.20049">
        <ele>712.95</ele>
        <time>2015-12-19T10:02:21Z</time>
      </trkpt>
      <trkpt lat="43.39987" lon="2.2005">
        <ele>712.47</ele>
        <time>2015-12-19T10:02:31Z</time>
      </trkpt>
      <trkpt lat="43.39987" lon="2.20048">
        <ele>711.99</ele>
        <time>2015-12-19T10:02:49Z</time>
      </trkpt>
      <trkpt lat="43.39988" lon="2.20049">
        <ele>712.47</ele>
        <time>2015-12-19T10:03:02Z</time>
      </trkpt>
      <trkpt lat="43.39987" lon="2.2005">
        <ele>712.95</ele>
        <time>2015-12-19T10:03:06Z</time>
      </trkpt>
      <trkpt lat="43.39986" lon="2.20052">
        <ele>712.95</ele>
        <time>2015-12-19T10:03:07Z</time>
      </trkpt>
      <trkpt lat="43.39985" lon="2.20053">
        <ele>713.44</ele>
        <time>2015-12-19T10:03:08Z</time>
      </trkpt>
      <trkpt lat="43.39982" lon="2.20058">
        <ele>712.47</ele>
        <time>2015-12-19T10:03:10Z</time>
      </trkpt>
      <trkpt lat="43.39974" lon="2.20083">
        <ele>712.95</ele>
        <time>2015-12-19T10:03:16Z</time>
      </trkpt>
      <trkpt lat="43.39975" lon="2.20114">
        <ele>713.44</ele>
        <time>2015-12-19T10:03:23Z</time>
      </trkpt>
      <trkpt lat="43.39973" lon="2.20146">
        <ele>714.88</ele>
        <time>2015-12-19T10:03:30Z</time>
      </trkpt>
      <trkpt lat="43.39968" lon="2.20171">
        <ele>715.36</ele>
        <time>2015-12-19T10:03:36Z</time>
      </trkpt>
      <trkpt lat="43.39965" lon="2.202">
        <ele>716.8</ele>
        <time>2015-12-19T10:03:43Z</time>
      </trkpt>
      <trkpt lat="43.39963" lon="2.20226">
        <ele>718.72</ele>
        <time>2015-12-19T10:03:49Z</time>
      </trkpt>
      <trkpt lat="43.39963" lon="2.20242">
        <ele>720.16</ele>
        <time>2015-12-19T10:03:54Z</time>
      </trkpt>
      <trkpt lat="43.39959" lon="2.20262">
        <ele>721.61</ele>
        <time>2015-12-19T10:04:00Z</time>
      </trkpt>
      <trkpt lat="43.39958" lon="2.20266">
        <ele>721.61</ele>
        <time>2015-12-19T10:04:01Z</time>
      </trkpt>
      <trkpt lat="43.39949" lon="2.20288">
        <ele>724.01</ele>
        <time>2015-12-19T10:04:08Z</time>
      </trkpt>
      <trkpt lat="43.39948" lon="2.20291">
        <ele>724.49</ele>
        <time>2015-12-19T10:04:09Z</time>
      </trkpt>
      <trkpt lat="43.39942" lon="2.20311">
        <ele>725.93</ele>
        <time>2015-12-19T10:04:16Z</time>
      </trkpt>
      <trkpt lat="43.39934" lon="2.2033">
        <ele>727.37</ele>
        <time>2015-12-19T10:04:23Z</time>
      </trkpt>
      <trkpt lat="43.39925" lon="2.20349">
        <ele>729.3</ele>
        <time>2015-12-19T10:04:31Z</time>
      </trkpt>
      <trkpt lat="43.39919" lon="2.20369">
        <ele>730.74</ele>
        <time>2015-12-19T10:04:38Z</time>
      </trkpt>
      <trkpt lat="43.39913" lon="2.20389">
        <ele>731.22</ele>
        <time>2015-12-19T10:04:45Z</time>
      </trkpt>
      <trkpt lat="43.39905" lon="2.20405">
        <ele>732.18</ele>
        <time>2015-12-19T10:04:51Z</time>
      </trkpt>
      <trkpt lat="43.39904" lon="2.20407">
        <ele>731.7</ele>
        <time>2015-12-19T10:04:52Z</time>
      </trkpt>
      <trkpt lat="43.39902" lon="2.20409">
        <ele>731.7</ele>
        <time>2015-12-19T10:04:53Z</time>
      </trkpt>
      <trkpt lat="43.39901" lon="2.20412">
        <ele>732.18</ele>
        <time>2015-12-19T10:04:54Z</time>
      </trkpt>
      <trkpt lat="43.39892" lon="2.20434">
        <ele>733.14</ele>
        <time>2015-12-19T10:05:02Z</time>
      </trkpt>
      <trkpt lat="43.39886" lon="2.20458">
        <ele>732.66</ele>
        <time>2015-12-19T10:05:10Z</time>
      </trkpt>
      <trkpt lat="43.39881" lon="2.20484">
        <ele>732.18</ele>
        <time>2015-12-19T10:05:18Z</time>
      </trkpt>
      <trkpt lat="43.39875" lon="2.20505">
        <ele>731.22</ele>
        <time>2015-12-19T10:05:24Z</time>
      </trkpt>
      <trkpt lat="43.39867" lon="2.2054">
        <ele>731.22</ele>
        <time>2015-12-19T10:05:32Z</time>
      </trkpt>
      <trkpt lat="43.39865" lon="2.20551">
        <ele>730.74</ele>
        <time>2015-12-19T10:05:34Z</time>
      </trkpt>
      <trkpt lat="43.39866" lon="2.20591">
        <ele>730.26</ele>
        <time>2015-12-19T10:05:41Z</time>
      </trkpt>
      <trkpt lat="43.39868" lon="2.20609">
        <ele>730.26</ele>
        <time>2015-12-19T10:05:46Z</time>
      </trkpt>
      <trkpt lat="43.3987" lon="2.20637">
        <ele>729.78</ele>
        <time>2015-12-19T10:05:52Z</time>
      </trkpt>
      <trkpt lat="43.39876" lon="2.2067">
        <ele>730.26</ele>
        <time>2015-12-19T10:05:59Z</time>
      </trkpt>
      <trkpt lat="43.39881" lon="2.20701">
        <ele>731.22</ele>
        <time>2015-12-19T10:06:06Z</time>
      </trkpt>
      <trkpt lat="43.39885" lon="2.2073">
        <ele>733.14</ele>
        <time>2015-12-19T10:06:13Z</time>
      </trkpt>
      <trkpt lat="43.39895" lon="2.20747">
        <ele>734.1</ele>
        <time>2015-12-19T10:06:19Z</time>
      </trkpt>
      <trkpt lat="43.39913" lon="2.20749">
        <ele>736.03</ele>
        <time>2015-12-19T10:06:26Z</time>
      </trkpt>
      <trkpt lat="43.39927" lon="2.20738">
        <ele>736.99</ele>
        <time>2015-12-19T10:06:33Z</time>
      </trkpt>
      <trkpt lat="43.39938" lon="2.20736">
        <ele>738.43</ele>
        <time>2015-12-19T10:06:39Z</time>
      </trkpt>
      <trkpt lat="43.3995" lon="2.20744">
        <ele>740.83</ele>
        <time>2015-12-19T10:06:45Z</time>
      </trkpt>
      <trkpt lat="43.39962" lon="2.20751">
        <ele>742.76</ele>
        <time>2015-12-19T10:06:52Z</time>
      </trkpt>
      <trkpt lat="43.39965" lon="2.20753">
        <ele>742.28</ele>
        <time>2015-12-19T10:06:54Z</time>
      </trkpt>
      <trkpt lat="43.39976" lon="2.20761">
        <ele>744.68</ele>
        <time>2015-12-19T10:07:01Z</time>
      </trkpt>
      <trkpt lat="43.39983" lon="2.20765">
        <ele>745.64</ele>
        <time>2015-12-19T10:07:04Z</time>
      </trkpt>
      <trkpt lat="43.39985" lon="2.20766">
        <ele>745.64</ele>
        <time>2015-12-19T10:07:05Z</time>
      </trkpt>
      <trkpt lat="43.39986" lon="2.20768">
        <ele>746.12</ele>
        <time>2015-12-19T10:07:06Z</time>
      </trkpt>
      <trkpt lat="43.39988" lon="2.20769">
        <ele>746.6</ele>
        <time>2015-12-19T10:07:07Z</time>
      </trkpt>
      <trkpt lat="43.39991" lon="2.2077">
        <ele>746.12</ele>
        <time>2015-12-19T10:07:08Z</time>
      </trkpt>
      <trkpt lat="43.39993" lon="2.20771">
        <ele>746.6</ele>
        <time>2015-12-19T10:07:09Z</time>
      </trkpt>
      <trkpt lat="43.39995" lon="2.20772">
        <ele>747.08</ele>
        <time>2015-12-19T10:07:10Z</time>
      </trkpt>
      <trkpt lat="43.39997" lon="2.20773">
        <ele>746.6</ele>
        <time>2015-12-19T10:07:11Z</time>
      </trkpt>
      <trkpt lat="43.4" lon="2.20774">
        <ele>747.08</ele>
        <time>2015-12-19T10:07:12Z</time>
      </trkpt>
      <trkpt lat="43.40013" lon="2.2078">
        <ele>748.52</ele>
        <time>2015-12-19T10:07:19Z</time>
      </trkpt>
      <trkpt lat="43.40021" lon="2.20784">
        <ele>749</ele>
        <time>2015-12-19T10:07:25Z</time>
      </trkpt>
      <trkpt lat="43.4003" lon="2.20787">
        <ele>749.97</ele>
        <time>2015-12-19T10:07:30Z</time>
      </trkpt>
      <trkpt lat="43.40033" lon="2.20788">
        <ele>749.49</ele>
        <time>2015-12-19T10:07:32Z</time>
      </trkpt>
      <trkpt lat="43.40035" lon="2.20789">
        <ele>749.97</ele>
        <time>2015-12-19T10:07:33Z</time>
      </trkpt>
      <trkpt lat="43.40041" lon="2.20792">
        <ele>749.97</ele>
        <time>2015-12-19T10:07:37Z</time>
      </trkpt>
      <trkpt lat="43.40043" lon="2.20793">
        <ele>750.45</ele>
        <time>2015-12-19T10:07:38Z</time>
      </trkpt>
      <trkpt lat="43.40045" lon="2.20794">
        <ele>749.97</ele>
        <time>2015-12-19T10:07:39Z</time>
      </trkpt>
      <trkpt lat="43.40046" lon="2.20795">
        <ele>750.45</ele>
        <time>2015-12-19T10:07:40Z</time>
      </trkpt>
      <trkpt lat="43.40048" lon="2.20797">
        <ele>750.45</ele>
        <time>2015-12-19T10:07:41Z</time>
      </trkpt>
      <trkpt lat="43.4005" lon="2.20798">
        <ele>750.93</ele>
        <time>2015-12-19T10:07:42Z</time>
      </trkpt>
      <trkpt lat="43.40065" lon="2.20803">
        <ele>751.41</ele>
        <time>2015-12-19T10:07:49Z</time>
      </trkpt>
      <trkpt lat="43.40076" lon="2.20811">
        <ele>752.37</ele>
        <time>2015-12-19T10:07:56Z</time>
      </trkpt>
      <trkpt lat="43.40089" lon="2.20825">
        <ele>752.37</ele>
        <time>2015-12-19T10:08:03Z</time>
      </trkpt>
      <trkpt lat="43.40097" lon="2.20843">
        <ele>754.77</ele>
        <time>2015-12-19T10:08:10Z</time>
      </trkpt>
      <trkpt lat="43.40102" lon="2.20863">
        <ele>756.21</ele>
        <time>2015-12-19T10:08:17Z</time>
      </trkpt>
      <trkpt lat="43.40092" lon="2.20869">
        <ele>756.21</ele>
        <time>2015-12-19T10:08:23Z</time>
      </trkpt>
      <trkpt lat="43.40077" lon="2.20871">
        <ele>756.21</ele>
        <time>2015-12-19T10:08:31Z</time>
      </trkpt>
      <trkpt lat="43.40054" lon="2.20873">
        <ele>756.21</ele>
        <time>2015-12-19T10:08:41Z</time>
      </trkpt>
      <trkpt lat="43.40035" lon="2.20884">
        <ele>756.69</ele>
        <time>2015-12-19T10:08:49Z</time>
      </trkpt>
      <trkpt lat="43.40017" lon="2.20895">
        <ele>757.18</ele>
        <time>2015-12-19T10:08:56Z</time>
      </trkpt>
      <trkpt lat="43.39995" lon="2.20909">
        <ele>757.18</ele>
        <time>2015-12-19T10:09:04Z</time>
      </trkpt>
      <trkpt lat="43.39968" lon="2.20927">
        <ele>757.66</ele>
        <time>2015-12-19T10:09:14Z</time>
      </trkpt>
      <trkpt lat="43.39948" lon="2.20941">
        <ele>757.66</ele>
        <time>2015-12-19T10:09:21Z</time>
      </trkpt>
      <trkpt lat="43.39924" lon="2.2097">
        <ele>758.14</ele>
        <time>2015-12-19T10:09:31Z</time>
      </trkpt>
      <trkpt lat="43.39906" lon="2.20993">
        <ele>759.1</ele>
        <time>2015-12-19T10:09:39Z</time>
      </trkpt>
      <trkpt lat="43.39889" lon="2.21013">
        <ele>759.1</ele>
        <time>2015-12-19T10:09:46Z</time>
      </trkpt>
      <trkpt lat="43.39872" lon="2.21036">
        <ele>758.62</ele>
        <time>2015-12-19T10:09:54Z</time>
      </trkpt>
      <trkpt lat="43.39835" lon="2.21073">
        <ele>755.73</ele>
        <time>2015-12-19T10:13:44Z</time>
      </trkpt>
      <trkpt lat="43.3981" lon="2.21099">
        <ele>755.25</ele>
        <time>2015-12-19T10:13:53Z</time>
      </trkpt>
      <trkpt lat="43.39793" lon="2.21114">
        <ele>754.77</ele>
        <time>2015-12-19T10:13:58Z</time>
      </trkpt>
      <trkpt lat="43.3979" lon="2.21117">
        <ele>754.77</ele>
        <time>2015-12-19T10:13:59Z</time>
      </trkpt>
      <trkpt lat="43.39786" lon="2.21121">
        <ele>753.33</ele>
        <time>2015-12-19T10:14:00Z</time>
      </trkpt>
      <trkpt lat="43.39777" lon="2.21127">
        <ele>752.85</ele>
        <time>2015-12-19T10:14:02Z</time>
      </trkpt>
      <trkpt lat="43.39761" lon="2.21136">
        <ele>751.41</ele>
        <time>2015-12-19T10:14:05Z</time>
      </trkpt>
      <trkpt lat="43.39733" lon="2.21152">
        <ele>749</ele>
        <time>2015-12-19T10:14:09Z</time>
      </trkpt>
      <trkpt lat="43.39726" lon="2.21157">
        <ele>749</ele>
        <time>2015-12-19T10:14:10Z</time>
      </trkpt>
      <trkpt lat="43.39709" lon="2.21173">
        <ele>749.97</ele>
        <time>2015-12-19T10:14:13Z</time>
      </trkpt>
      <trkpt lat="43.39705" lon="2.21178">
        <ele>749.97</ele>
        <time>2015-12-19T10:14:14Z</time>
      </trkpt>
      <trkpt lat="43.39693" lon="2.21192">
        <ele>751.89</ele>
        <time>2015-12-19T10:14:17Z</time>
      </trkpt>
      <trkpt lat="43.39689" lon="2.21196">
        <ele>751.89</ele>
        <time>2015-12-19T10:14:18Z</time>
      </trkpt>
      <trkpt lat="43.39671" lon="2.2122">
        <ele>753.33</ele>
        <time>2015-12-19T10:14:23Z</time>
      </trkpt>
      <trkpt lat="43.39667" lon="2.21225">
        <ele>753.33</ele>
        <time>2015-12-19T10:14:24Z</time>
      </trkpt>
      <trkpt lat="43.39655" lon="2.21244">
        <ele>753.81</ele>
        <time>2015-12-19T10:14:28Z</time>
      </trkpt>
      <trkpt lat="43.39644" lon="2.21259">
        <ele>753.81</ele>
        <time>2015-12-19T10:14:31Z</time>
      </trkpt>
      <trkpt lat="43.39631" lon="2.21276">
        <ele>754.29</ele>
        <time>2015-12-19T10:14:35Z</time>
      </trkpt>
      <trkpt lat="43.39628" lon="2.21281">
        <ele>754.29</ele>
        <time>2015-12-19T10:14:36Z</time>
      </trkpt>
      <trkpt lat="43.39625" lon="2.21286">
        <ele>753.81</ele>
        <time>2015-12-19T10:14:37Z</time>
      </trkpt>
      <trkpt lat="43.39612" lon="2.21306">
        <ele>752.85</ele>
        <time>2015-12-19T10:14:41Z</time>
      </trkpt>
      <trkpt lat="43.39605" lon="2.21314">
        <ele>752.85</ele>
        <time>2015-12-19T10:14:43Z</time>
      </trkpt>
      <trkpt lat="43.39602" lon="2.21318">
        <ele>752.85</ele>
        <time>2015-12-19T10:14:44Z</time>
      </trkpt>
      <trkpt lat="43.39592" lon="2.21327">
        <ele>752.85</ele>
        <time>2015-12-19T10:14:47Z</time>
      </trkpt>
      <trkpt lat="43.39589" lon="2.21331">
        <ele>752.37</ele>
        <time>2015-12-19T10:14:48Z</time>
      </trkpt>
      <trkpt lat="43.39579" lon="2.21342">
        <ele>752.85</ele>
        <time>2015-12-19T10:14:51Z</time>
      </trkpt>
      <trkpt lat="43.39575" lon="2.21346">
        <ele>753.33</ele>
        <time>2015-12-19T10:14:52Z</time>
      </trkpt>
      <trkpt lat="43.39572" lon="2.21349">
        <ele>752.85</ele>
        <time>2015-12-19T10:14:53Z</time>
      </trkpt>
      <trkpt lat="43.39568" lon="2.21353">
        <ele>753.33</ele>
        <time>2015-12-19T10:14:54Z</time>
      </trkpt>
      <trkpt lat="43.39564" lon="2.21356">
        <ele>753.33</ele>
        <time>2015-12-19T10:14:55Z</time>
      </trkpt>
      <trkpt lat="43.39561" lon="2.2136">
        <ele>753.33</ele>
        <time>2015-12-19T10:14:56Z</time>
      </trkpt>
      <trkpt lat="43.39538" lon="2.21389">
        <ele>754.29</ele>
        <time>2015-12-19T10:15:03Z</time>
      </trkpt>
      <trkpt lat="43.39525" lon="2.21405">
        <ele>754.29</ele>
        <time>2015-12-19T10:15:07Z</time>
      </trkpt>
      <trkpt lat="43.39497" lon="2.21436">
        <ele>754.29</ele>
        <time>2015-12-19T10:15:15Z</time>
      </trkpt>
      <trkpt lat="43.39487" lon="2.21446">
        <ele>755.25</ele>
        <time>2015-12-19T10:15:18Z</time>
      </trkpt>
      <trkpt lat="43.39473" lon="2.21462">
        <ele>755.25</ele>
        <time>2015-12-19T10:15:22Z</time>
      </trkpt>
      <trkpt lat="43.39466" lon="2.21471">
        <ele>754.77</ele>
        <time>2015-12-19T10:15:24Z</time>
      </trkpt>
      <trkpt lat="43.39463" lon="2.21475">
        <ele>754.77</ele>
        <time>2015-12-19T10:15:25Z</time>
      </trkpt>
      <trkpt lat="43.39459" lon="2.2148">
        <ele>753.81</ele>
        <time>2015-12-19T10:15:26Z</time>
      </trkpt>
      <trkpt lat="43.39455" lon="2.21485">
        <ele>753.81</ele>
        <time>2015-12-19T10:15:27Z</time>
      </trkpt>
      <trkpt lat="43.39451" lon="2.21489">
        <ele>753.81</ele>
        <time>2015-12-19T10:15:28Z</time>
      </trkpt>
      <trkpt lat="43.39447" lon="2.21493">
        <ele>753.33</ele>
        <time>2015-12-19T10:15:29Z</time>
      </trkpt>
      <trkpt lat="43.39435" lon="2.21504">
        <ele>753.33</ele>
        <time>2015-12-19T10:15:32Z</time>
      </trkpt>
      <trkpt lat="43.3942" lon="2.2152">
        <ele>752.85</ele>
        <time>2015-12-19T10:15:36Z</time>
      </trkpt>
      <trkpt lat="43.39416" lon="2.21523">
        <ele>751.41</ele>
        <time>2015-12-19T10:15:37Z</time>
      </trkpt>
      <trkpt lat="43.39412" lon="2.21525">
        <ele>751.41</ele>
        <time>2015-12-19T10:15:38Z</time>
      </trkpt>
      <trkpt lat="43.39409" lon="2.21528">
        <ele>751.89</ele>
        <time>2015-12-19T10:15:39Z</time>
      </trkpt>
      <trkpt lat="43.39407" lon="2.21531">
        <ele>750.93</ele>
        <time>2015-12-19T10:15:40Z</time>
      </trkpt>
      <trkpt lat="43.39407" lon="2.21534">
        <ele>750.45</ele>
        <time>2015-12-19T10:15:41Z</time>
      </trkpt>
      <trkpt lat="43.39407" lon="2.21537">
        <ele>750.93</ele>
        <time>2015-12-19T10:15:42Z</time>
      </trkpt>
      <trkpt lat="43.39408" lon="2.21539">
        <ele>749.97</ele>
        <time>2015-12-19T10:15:43Z</time>
      </trkpt>
      <trkpt lat="43.39408" lon="2.21542">
        <ele>750.45</ele>
        <time>2015-12-19T10:15:44Z</time>
      </trkpt>
      <trkpt lat="43.39409" lon="2.21546">
        <ele>750.45</ele>
        <time>2015-12-19T10:15:45Z</time>
      </trkpt>
      <trkpt lat="43.39421" lon="2.21568">
        <ele>750.45</ele>
        <time>2015-12-19T10:15:52Z</time>
      </trkpt>
      <trkpt lat="43.39424" lon="2.21569">
        <ele>749.97</ele>
        <time>2015-12-19T10:15:53Z</time>
      </trkpt>
      <trkpt lat="43.39441" lon="2.21581">
        <ele>748.04</ele>
        <time>2015-12-19T10:16:00Z</time>
      </trkpt>
      <trkpt lat="43.39445" lon="2.21584">
        <ele>747.56</ele>
        <time>2015-12-19T10:16:01Z</time>
      </trkpt>
      <trkpt lat="43.39459" lon="2.21594">
        <ele>746.6</ele>
        <time>2015-12-19T10:16:04Z</time>
      </trkpt>
      <trkpt lat="43.39463" lon="2.21597">
        <ele>746.6</ele>
        <time>2015-12-19T10:16:05Z</time>
      </trkpt>
      <trkpt lat="43.39468" lon="2.21599">
        <ele>746.12</ele>
        <time>2015-12-19T10:16:06Z</time>
      </trkpt>
      <trkpt lat="43.39472" lon="2.21601">
        <ele>745.16</ele>
        <time>2015-12-19T10:16:07Z</time>
      </trkpt>
      <trkpt lat="43.39477" lon="2.21603">
        <ele>745.16</ele>
        <time>2015-12-19T10:16:08Z</time>
      </trkpt>
      <trkpt lat="43.39481" lon="2.21604">
        <ele>745.64</ele>
        <time>2015-12-19T10:16:09Z</time>
      </trkpt>
      <trkpt lat="43.39486" lon="2.21605">
        <ele>745.64</ele>
        <time>2015-12-19T10:16:10Z</time>
      </trkpt>
      <trkpt lat="43.39508" lon="2.21615">
        <ele>744.68</ele>
        <time>2015-12-19T10:16:15Z</time>
      </trkpt>
      <trkpt lat="43.39528" lon="2.21629">
        <ele>744.2</ele>
        <time>2015-12-19T10:16:19Z</time>
      </trkpt>
      <trkpt lat="43.39533" lon="2.21634">
        <ele>743.72</ele>
        <time>2015-12-19T10:16:20Z</time>
      </trkpt>
      <trkpt lat="43.39557" lon="2.21652">
        <ele>741.79</ele>
        <time>2015-12-19T10:16:25Z</time>
      </trkpt>
      <trkpt lat="43.39579" lon="2.21665">
        <ele>740.83</ele>
        <time>2015-12-19T10:16:30Z</time>
      </trkpt>
      <trkpt lat="43.39584" lon="2.21667">
        <ele>740.35</ele>
        <time>2015-12-19T10:16:31Z</time>
      </trkpt>
      <trkpt lat="43.39612" lon="2.21668">
        <ele>738.91</ele>
        <time>2015-12-19T10:16:38Z</time>
      </trkpt>
      <trkpt lat="43.39637" lon="2.21661">
        <ele>736.99</ele>
        <time>2015-12-19T10:16:44Z</time>
      </trkpt>
      <trkpt lat="43.39661" lon="2.2165">
        <ele>735.55</ele>
        <time>2015-12-19T10:16:50Z</time>
      </trkpt>
      <trkpt lat="43.39682" lon="2.21634">
        <ele>733.14</ele>
        <time>2015-12-19T10:16:56Z</time>
      </trkpt>
      <trkpt lat="43.39699" lon="2.21626">
        <ele>732.66</ele>
        <time>2015-12-19T10:17:01Z</time>
      </trkpt>
      <trkpt lat="43.39702" lon="2.21626">
        <ele>732.66</ele>
        <time>2015-12-19T10:17:02Z</time>
      </trkpt>
      <trkpt lat="43.39705" lon="2.21627">
        <ele>732.18</ele>
        <time>2015-12-19T10:17:03Z</time>
      </trkpt>
      <trkpt lat="43.3971" lon="2.21628">
        <ele>732.18</ele>
        <time>2015-12-19T10:17:05Z</time>
      </trkpt>
      <trkpt lat="43.39712" lon="2.21628">
        <ele>732.18</ele>
        <time>2015-12-19T10:17:06Z</time>
      </trkpt>
      <trkpt lat="43.39715" lon="2.21629">
        <ele>731.7</ele>
        <time>2015-12-19T10:17:07Z</time>
      </trkpt>
      <trkpt lat="43.39717" lon="2.2163">
        <ele>732.66</ele>
        <time>2015-12-19T10:17:08Z</time>
      </trkpt>
      <trkpt lat="43.39719" lon="2.21631">
        <ele>733.14</ele>
        <time>2015-12-19T10:17:09Z</time>
      </trkpt>
      <trkpt lat="43.39722" lon="2.21631">
        <ele>733.14</ele>
        <time>2015-12-19T10:17:10Z</time>
      </trkpt>
      <trkpt lat="43.39735" lon="2.21633">
        <ele>733.14</ele>
        <time>2015-12-19T10:17:15Z</time>
      </trkpt>
      <trkpt lat="43.3975" lon="2.21643">
        <ele>732.66</ele>
        <time>2015-12-19T10:17:20Z</time>
      </trkpt>
      <trkpt lat="43.39757" lon="2.21648">
        <ele>730.74</ele>
        <time>2015-12-19T10:17:22Z</time>
      </trkpt>
      <trkpt lat="43.39762" lon="2.2165">
        <ele>730.26</ele>
        <time>2015-12-19T10:17:23Z</time>
      </trkpt>
      <trkpt lat="43.39767" lon="2.21652">
        <ele>728.82</ele>
        <time>2015-12-19T10:17:24Z</time>
      </trkpt>
      <trkpt lat="43.39789" lon="2.21662">
        <ele>726.41</ele>
        <time>2015-12-19T10:17:29Z</time>
      </trkpt>
      <trkpt lat="43.39796" lon="2.21673">
        <ele>726.41</ele>
        <time>2015-12-19T10:17:32Z</time>
      </trkpt>
      <trkpt lat="43.39813" lon="2.21711">
        <ele>726.89</ele>
        <time>2015-12-19T10:17:39Z</time>
      </trkpt>
      <trkpt lat="43.39826" lon="2.2174">
        <ele>729.3</ele>
        <time>2015-12-19T10:17:45Z</time>
      </trkpt>
      <trkpt lat="43.39826" lon="2.21747">
        <ele>727.86</ele>
        <time>2015-12-19T10:17:46Z</time>
      </trkpt>
      <trkpt lat="43.39827" lon="2.21754">
        <ele>727.86</ele>
        <time>2015-12-19T10:17:47Z</time>
      </trkpt>
      <trkpt lat="43.39827" lon="2.21761">
        <ele>727.86</ele>
        <time>2015-12-19T10:17:48Z</time>
      </trkpt>
      <trkpt lat="43.39828" lon="2.21768">
        <ele>726.89</ele>
        <time>2015-12-19T10:17:49Z</time>
      </trkpt>
      <trkpt lat="43.39828" lon="2.21775">
        <ele>726.89</ele>
        <time>2015-12-19T10:17:50Z</time>
      </trkpt>
      <trkpt lat="43.39831" lon="2.21796">
        <ele>726.41</ele>
        <time>2015-12-19T10:17:53Z</time>
      </trkpt>
      <trkpt lat="43.39834" lon="2.21802">
        <ele>725.93</ele>
        <time>2015-12-19T10:17:54Z</time>
      </trkpt>
      <trkpt lat="43.39849" lon="2.21836">
        <ele>724.49</ele>
        <time>2015-12-19T10:18:00Z</time>
      </trkpt>
      <trkpt lat="43.3985" lon="2.21844">
        <ele>724.01</ele>
        <time>2015-12-19T10:18:01Z</time>
      </trkpt>
      <trkpt lat="43.39856" lon="2.2187">
        <ele>722.09</ele>
        <time>2015-12-19T10:18:04Z</time>
      </trkpt>
      <trkpt lat="43.3986" lon="2.21878">
        <ele>720.65</ele>
        <time>2015-12-19T10:18:05Z</time>
      </trkpt>
      <trkpt lat="43.39864" lon="2.21885">
        <ele>721.13</ele>
        <time>2015-12-19T10:18:06Z</time>
      </trkpt>
      <trkpt lat="43.39869" lon="2.21893">
        <ele>720.16</ele>
        <time>2015-12-19T10:18:07Z</time>
      </trkpt>
      <trkpt lat="43.39873" lon="2.219">
        <ele>719.68</ele>
        <time>2015-12-19T10:18:08Z</time>
      </trkpt>
      <trkpt lat="43.39877" lon="2.21908">
        <ele>719.2</ele>
        <time>2015-12-19T10:18:09Z</time>
      </trkpt>
      <trkpt lat="43.39886" lon="2.21923">
        <ele>716.8</ele>
        <time>2015-12-19T10:18:11Z</time>
      </trkpt>
      <trkpt lat="43.3989" lon="2.2193">
        <ele>716.32</ele>
        <time>2015-12-19T10:18:12Z</time>
      </trkpt>
      <trkpt lat="43.39894" lon="2.21935">
        <ele>716.32</ele>
        <time>2015-12-19T10:18:13Z</time>
      </trkpt>
      <trkpt lat="43.39898" lon="2.2194">
        <ele>714.88</ele>
        <time>2015-12-19T10:18:14Z</time>
      </trkpt>
      <trkpt lat="43.39907" lon="2.21949">
        <ele>714.4</ele>
        <time>2015-12-19T10:18:16Z</time>
      </trkpt>
      <trkpt lat="43.39919" lon="2.21966">
        <ele>711.51</ele>
        <time>2015-12-19T10:18:19Z</time>
      </trkpt>
      <trkpt lat="43.39923" lon="2.21972">
        <ele>710.55</ele>
        <time>2015-12-19T10:18:20Z</time>
      </trkpt>
      <trkpt lat="43.39927" lon="2.21976">
        <ele>709.59</ele>
        <time>2015-12-19T10:18:21Z</time>
      </trkpt>
      <trkpt lat="43.39938" lon="2.21984">
        <ele>707.19</ele>
        <time>2015-12-19T10:18:24Z</time>
      </trkpt>
      <trkpt lat="43.3994" lon="2.21988">
        <ele>706.71</ele>
        <time>2015-12-19T10:18:25Z</time>
      </trkpt>
      <trkpt lat="43.39941" lon="2.21993">
        <ele>706.71</ele>
        <time>2015-12-19T10:18:26Z</time>
      </trkpt>
      <trkpt lat="43.39942" lon="2.21999">
        <ele>706.71</ele>
        <time>2015-12-19T10:18:27Z</time>
      </trkpt>
      <trkpt lat="43.39942" lon="2.22005">
        <ele>706.23</ele>
        <time>2015-12-19T10:18:28Z</time>
      </trkpt>
      <trkpt lat="43.39942" lon="2.22011">
        <ele>705.26</ele>
        <time>2015-12-19T10:18:29Z</time>
      </trkpt>
      <trkpt lat="43.39941" lon="2.22018">
        <ele>704.78</ele>
        <time>2015-12-19T10:18:30Z</time>
      </trkpt>
      <trkpt lat="43.3994" lon="2.22025">
        <ele>703.82</ele>
        <time>2015-12-19T10:18:31Z</time>
      </trkpt>
      <trkpt lat="43.39939" lon="2.22032">
        <ele>704.78</ele>
        <time>2015-12-19T10:18:32Z</time>
      </trkpt>
      <trkpt lat="43.39936" lon="2.22045">
        <ele>703.34</ele>
        <time>2015-12-19T10:18:34Z</time>
      </trkpt>
      <trkpt lat="43.39932" lon="2.2205">
        <ele>702.38</ele>
        <time>2015-12-19T10:18:35Z</time>
      </trkpt>
      <trkpt lat="43.39925" lon="2.22061">
        <ele>701.42</ele>
        <time>2015-12-19T10:18:37Z</time>
      </trkpt>
      <trkpt lat="43.39922" lon="2.22068">
        <ele>700.94</ele>
        <time>2015-12-19T10:18:38Z</time>
      </trkpt>
      <trkpt lat="43.3992" lon="2.22075">
        <ele>700.94</ele>
        <time>2015-12-19T10:18:39Z</time>
      </trkpt>
      <trkpt lat="43.39918" lon="2.22081">
        <ele>700.46</ele>
        <time>2015-12-19T10:18:40Z</time>
      </trkpt>
      <trkpt lat="43.39917" lon="2.22087">
        <ele>700.46</ele>
        <time>2015-12-19T10:18:41Z</time>
      </trkpt>
      <trkpt lat="43.39917" lon="2.22093">
        <ele>699.5</ele>
        <time>2015-12-19T10:18:42Z</time>
      </trkpt>
      <trkpt lat="43.39917" lon="2.22099">
        <ele>699.5</ele>
        <time>2015-12-19T10:18:43Z</time>
      </trkpt>
      <trkpt lat="43.39918" lon="2.22106">
        <ele>699.02</ele>
        <time>2015-12-19T10:18:44Z</time>
      </trkpt>
      <trkpt lat="43.39918" lon="2.22112">
        <ele>699.5</ele>
        <time>2015-12-19T10:18:45Z</time>
      </trkpt>
      <trkpt lat="43.39919" lon="2.22118">
        <ele>699.02</ele>
        <time>2015-12-19T10:18:46Z</time>
      </trkpt>
      <trkpt lat="43.39919" lon="2.22124">
        <ele>699.98</ele>
        <time>2015-12-19T10:18:47Z</time>
      </trkpt>
      <trkpt lat="43.3992" lon="2.22174">
        <ele>699.02</ele>
        <time>2015-12-19T10:18:55Z</time>
      </trkpt>
      <trkpt lat="43.39921" lon="2.22208">
        <ele>700.46</ele>
        <time>2015-12-19T10:19:01Z</time>
      </trkpt>
      <trkpt lat="43.39922" lon="2.2223">
        <ele>699.98</ele>
        <time>2015-12-19T10:19:06Z</time>
      </trkpt>
      <trkpt lat="43.3992" lon="2.22233">
        <ele>699.02</ele>
        <time>2015-12-19T10:19:07Z</time>
      </trkpt>
      <trkpt lat="43.39918" lon="2.22235">
        <ele>699.98</ele>
        <time>2015-12-19T10:19:08Z</time>
      </trkpt>
      <trkpt lat="43.39915" lon="2.22237">
        <ele>698.53</ele>
        <time>2015-12-19T10:19:09Z</time>
      </trkpt>
      <trkpt lat="43.39912" lon="2.2224">
        <ele>697.57</ele>
        <time>2015-12-19T10:19:10Z</time>
      </trkpt>
      <trkpt lat="43.3991" lon="2.22244">
        <ele>696.61</ele>
        <time>2015-12-19T10:19:11Z</time>
      </trkpt>
      <trkpt lat="43.39908" lon="2.22247">
        <ele>695.65</ele>
        <time>2015-12-19T10:19:12Z</time>
      </trkpt>
      <trkpt lat="43.39906" lon="2.22253">
        <ele>694.21</ele>
        <time>2015-12-19T10:19:13Z</time>
      </trkpt>
      <trkpt lat="43.39904" lon="2.22259">
        <ele>692.77</ele>
        <time>2015-12-19T10:19:14Z</time>
      </trkpt>
      <trkpt lat="43.39902" lon="2.22265">
        <ele>691.33</ele>
        <time>2015-12-19T10:19:15Z</time>
      </trkpt>
      <trkpt lat="43.39899" lon="2.22271">
        <ele>690.84</ele>
        <time>2015-12-19T10:19:16Z</time>
      </trkpt>
      <trkpt lat="43.39896" lon="2.22278">
        <ele>688.92</ele>
        <time>2015-12-19T10:19:17Z</time>
      </trkpt>
      <trkpt lat="43.39892" lon="2.22286">
        <ele>688.44</ele>
        <time>2015-12-19T10:19:18Z</time>
      </trkpt>
      <trkpt lat="43.3989" lon="2.22294">
        <ele>687.48</ele>
        <time>2015-12-19T10:19:19Z</time>
      </trkpt>
      <trkpt lat="43.39887" lon="2.22302">
        <ele>686.52</ele>
        <time>2015-12-19T10:19:20Z</time>
      </trkpt>
      <trkpt lat="43.39878" lon="2.22316">
        <ele>685.56</ele>
        <time>2015-12-19T10:19:22Z</time>
      </trkpt>
      <trkpt lat="43.39873" lon="2.22323">
        <ele>684.12</ele>
        <time>2015-12-19T10:19:23Z</time>
      </trkpt>
      <trkpt lat="43.39869" lon="2.22329">
        <ele>683.63</ele>
        <time>2015-12-19T10:19:24Z</time>
      </trkpt>
      <trkpt lat="43.39864" lon="2.22335">
        <ele>683.15</ele>
        <time>2015-12-19T10:19:25Z</time>
      </trkpt>
      <trkpt lat="43.39861" lon="2.22341">
        <ele>682.67</ele>
        <time>2015-12-19T10:19:26Z</time>
      </trkpt>
      <trkpt lat="43.39857" lon="2.22346">
        <ele>683.15</ele>
        <time>2015-12-19T10:19:27Z</time>
      </trkpt>
      <trkpt lat="43.39854" lon="2.22351">
        <ele>682.19</ele>
        <time>2015-12-19T10:19:28Z</time>
      </trkpt>
      <trkpt lat="43.3985" lon="2.22354">
        <ele>681.23</ele>
        <time>2015-12-19T10:19:29Z</time>
      </trkpt>
      <trkpt lat="43.39845" lon="2.22356">
        <ele>681.23</ele>
        <time>2015-12-19T10:19:30Z</time>
      </trkpt>
      <trkpt lat="43.39831" lon="2.22363">
        <ele>680.27</ele>
        <time>2015-12-19T10:19:33Z</time>
      </trkpt>
      <trkpt lat="43.39826" lon="2.22364">
        <ele>680.27</ele>
        <time>2015-12-19T10:19:34Z</time>
      </trkpt>
      <trkpt lat="43.39821" lon="2.22365">
        <ele>680.27</ele>
        <time>2015-12-19T10:19:35Z</time>
      </trkpt>
      <trkpt lat="43.39818" lon="2.22367">
        <ele>681.23</ele>
        <time>2015-12-19T10:19:36Z</time>
      </trkpt>
      <trkpt lat="43.39814" lon="2.22369">
        <ele>680.75</ele>
        <time>2015-12-19T10:19:37Z</time>
      </trkpt>
      <trkpt lat="43.39811" lon="2.22371">
        <ele>679.79</ele>
        <time>2015-12-19T10:19:38Z</time>
      </trkpt>
      <trkpt lat="43.39808" lon="2.22372">
        <ele>680.27</ele>
        <time>2015-12-19T10:19:39Z</time>
      </trkpt>
      <trkpt lat="43.39804" lon="2.22373">
        <ele>680.27</ele>
        <time>2015-12-19T10:19:40Z</time>
      </trkpt>
      <trkpt lat="43.39799" lon="2.22377">
        <ele>679.79</ele>
        <time>2015-12-19T10:19:42Z</time>
      </trkpt>
      <trkpt lat="43.39798" lon="2.2238">
        <ele>679.31</ele>
        <time>2015-12-19T10:19:43Z</time>
      </trkpt>
      <trkpt lat="43.39797" lon="2.22385">
        <ele>679.31</ele>
        <time>2015-12-19T10:19:44Z</time>
      </trkpt>
      <trkpt lat="43.39795" lon="2.22393">
        <ele>675.94</ele>
        <time>2015-12-19T10:19:46Z</time>
      </trkpt>
      <trkpt lat="43.39794" lon="2.22398">
        <ele>675.94</ele>
        <time>2015-12-19T10:19:47Z</time>
      </trkpt>
      <trkpt lat="43.3979" lon="2.22405">
        <ele>674.5</ele>
        <time>2015-12-19T10:19:49Z</time>
      </trkpt>
      <trkpt lat="43.39789" lon="2.2241">
        <ele>673.06</ele>
        <time>2015-12-19T10:19:50Z</time>
      </trkpt>
      <trkpt lat="43.39788" lon="2.22416">
        <ele>672.58</ele>
        <time>2015-12-19T10:19:51Z</time>
      </trkpt>
      <trkpt lat="43.39785" lon="2.22421">
        <ele>671.62</ele>
        <time>2015-12-19T10:19:52Z</time>
      </trkpt>
      <trkpt lat="43.39781" lon="2.22426">
        <ele>670.66</ele>
        <time>2015-12-19T10:19:53Z</time>
      </trkpt>
      <trkpt lat="43.39777" lon="2.22431">
        <ele>671.14</ele>
        <time>2015-12-19T10:19:54Z</time>
      </trkpt>
      <trkpt lat="43.39759" lon="2.22449">
        <ele>669.22</ele>
        <time>2015-12-19T10:19:57Z</time>
      </trkpt>
      <trkpt lat="43.39745" lon="2.2246">
        <ele>668.73</ele>
        <time>2015-12-19T10:19:59Z</time>
      </trkpt>
      <trkpt lat="43.39739" lon="2.22466">
        <ele>668.25</ele>
        <time>2015-12-19T10:20:00Z</time>
      </trkpt>
      <trkpt lat="43.39712" lon="2.22499">
        <ele>668.73</ele>
        <time>2015-12-19T10:20:05Z</time>
      </trkpt>
      <trkpt lat="43.39708" lon="2.22506">
        <ele>666.81</ele>
        <time>2015-12-19T10:20:06Z</time>
      </trkpt>
      <trkpt lat="43.39678" lon="2.22543">
        <ele>666.33</ele>
        <time>2015-12-19T10:20:12Z</time>
      </trkpt>
      <trkpt lat="43.39667" lon="2.22562">
        <ele>664.41</ele>
        <time>2015-12-19T10:20:15Z</time>
      </trkpt>
      <trkpt lat="43.39664" lon="2.22566">
        <ele>664.41</ele>
        <time>2015-12-19T10:20:16Z</time>
      </trkpt>
      <trkpt lat="43.39663" lon="2.2257">
        <ele>664.41</ele>
        <time>2015-12-19T10:20:17Z</time>
      </trkpt>
      <trkpt lat="43.39661" lon="2.22573">
        <ele>663.93</ele>
        <time>2015-12-19T10:20:18Z</time>
      </trkpt>
      <trkpt lat="43.39659" lon="2.22577">
        <ele>663.45</ele>
        <time>2015-12-19T10:20:19Z</time>
      </trkpt>
      <trkpt lat="43.39657" lon="2.2258">
        <ele>663.45</ele>
        <time>2015-12-19T10:20:20Z</time>
      </trkpt>
      <trkpt lat="43.39656" lon="2.22584">
        <ele>663.45</ele>
        <time>2015-12-19T10:20:21Z</time>
      </trkpt>
      <trkpt lat="43.39654" lon="2.22588">
        <ele>662.97</ele>
        <time>2015-12-19T10:20:22Z</time>
      </trkpt>
      <trkpt lat="43.39652" lon="2.22591">
        <ele>663.45</ele>
        <time>2015-12-19T10:20:23Z</time>
      </trkpt>
      <trkpt lat="43.3965" lon="2.22595">
        <ele>662.97</ele>
        <time>2015-12-19T10:20:24Z</time>
      </trkpt>
      <trkpt lat="43.39643" lon="2.2261">
        <ele>661.04</ele>
        <time>2015-12-19T10:20:28Z</time>
      </trkpt>
      <trkpt lat="43.3964" lon="2.22612">
        <ele>661.04</ele>
        <time>2015-12-19T10:20:29Z</time>
      </trkpt>
      <trkpt lat="43.39637" lon="2.22615">
        <ele>659.12</ele>
        <time>2015-12-19T10:20:30Z</time>
      </trkpt>
      <trkpt lat="43.39629" lon="2.22618">
        <ele>657.68</ele>
        <time>2015-12-19T10:20:32Z</time>
      </trkpt>
      <trkpt lat="43.39625" lon="2.22621">
        <ele>657.2</ele>
        <time>2015-12-19T10:20:33Z</time>
      </trkpt>
      <trkpt lat="43.39621" lon="2.22624">
        <ele>655.76</ele>
        <time>2015-12-19T10:20:34Z</time>
      </trkpt>
      <trkpt lat="43.39619" lon="2.22627">
        <ele>655.28</ele>
        <time>2015-12-19T10:20:35Z</time>
      </trkpt>
      <trkpt lat="43.39617" lon="2.2263">
        <ele>655.28</ele>
        <time>2015-12-19T10:20:36Z</time>
      </trkpt>
      <trkpt lat="43.39617" lon="2.22634">
        <ele>655.76</ele>
        <time>2015-12-19T10:20:37Z</time>
      </trkpt>
      <trkpt lat="43.39616" lon="2.22637">
        <ele>656.24</ele>
        <time>2015-12-19T10:20:38Z</time>
      </trkpt>
      <trkpt lat="43.39615" lon="2.22641">
        <ele>656.24</ele>
        <time>2015-12-19T10:20:39Z</time>
      </trkpt>
      <trkpt lat="43.39613" lon="2.22643">
        <ele>655.76</ele>
        <time>2015-12-19T10:20:40Z</time>
      </trkpt>
      <trkpt lat="43.39632" lon="2.22658">
        <ele>657.2</ele>
        <time>2015-12-19T10:28:07Z</time>
      </trkpt>
      <trkpt lat="43.39632" lon="2.22661">
        <ele>657.2</ele>
        <time>2015-12-19T10:28:08Z</time>
      </trkpt>
      <trkpt lat="43.39634" lon="2.22665">
        <ele>657.68</ele>
        <time>2015-12-19T10:28:09Z</time>
      </trkpt>
      <trkpt lat="43.39635" lon="2.22668">
        <ele>657.68</ele>
        <time>2015-12-19T10:28:10Z</time>
      </trkpt>
      <trkpt lat="43.39636" lon="2.22672">
        <ele>658.64</ele>
        <time>2015-12-19T10:28:11Z</time>
      </trkpt>
      <trkpt lat="43.39635" lon="2.22675">
        <ele>658.16</ele>
        <time>2015-12-19T10:28:12Z</time>
      </trkpt>
      <trkpt lat="43.39634" lon="2.22678">
        <ele>658.64</ele>
        <time>2015-12-19T10:28:13Z</time>
      </trkpt>
      <trkpt lat="43.39631" lon="2.22681">
        <ele>659.12</ele>
        <time>2015-12-19T10:28:14Z</time>
      </trkpt>
      <trkpt lat="43.39629" lon="2.22683">
        <ele>658.64</ele>
        <time>2015-12-19T10:28:15Z</time>
      </trkpt>
      <trkpt lat="43.39627" lon="2.22686">
        <ele>659.6</ele>
        <time>2015-12-19T10:28:16Z</time>
      </trkpt>
      <trkpt lat="43.39625" lon="2.22689">
        <ele>659.6</ele>
        <time>2015-12-19T10:28:17Z</time>
      </trkpt>
      <trkpt lat="43.39624" lon="2.22693">
        <ele>659.6</ele>
        <time>2015-12-19T10:28:18Z</time>
      </trkpt>
      <trkpt lat="43.39625" lon="2.22696">
        <ele>660.56</ele>
        <time>2015-12-19T10:28:19Z</time>
      </trkpt>
      <trkpt lat="43.39627" lon="2.22699">
        <ele>660.56</ele>
        <time>2015-12-19T10:28:20Z</time>
      </trkpt>
      <trkpt lat="43.39628" lon="2.22702">
        <ele>661.04</ele>
        <time>2015-12-19T10:28:21Z</time>
      </trkpt>
      <trkpt lat="43.3963" lon="2.22704">
        <ele>661.04</ele>
        <time>2015-12-19T10:28:22Z</time>
      </trkpt>
      <trkpt lat="43.39632" lon="2.22706">
        <ele>661.52</ele>
        <time>2015-12-19T10:28:23Z</time>
      </trkpt>
      <trkpt lat="43.39634" lon="2.22709">
        <ele>662.01</ele>
        <time>2015-12-19T10:28:24Z</time>
      </trkpt>
      <trkpt lat="43.39643" lon="2.22714">
        <ele>662.01</ele>
        <time>2015-12-19T10:28:28Z</time>
      </trkpt>
      <trkpt lat="43.39651" lon="2.22714">
        <ele>663.93</ele>
        <time>2015-12-19T10:28:32Z</time>
      </trkpt>
      <trkpt lat="43.39663" lon="2.22707">
        <ele>664.89</ele>
        <time>2015-12-19T10:28:39Z</time>
      </trkpt>
      <trkpt lat="43.39663" lon="2.22706">
        <ele>665.37</ele>
        <time>2015-12-19T10:28:40Z</time>
      </trkpt>
      <trkpt lat="43.39665" lon="2.22704">
        <ele>666.33</ele>
        <time>2015-12-19T10:28:41Z</time>
      </trkpt>
      <trkpt lat="43.3967" lon="2.22698">
        <ele>667.29</ele>
        <time>2015-12-19T10:28:46Z</time>
      </trkpt>
      <trkpt lat="43.39674" lon="2.22693">
        <ele>666.81</ele>
        <time>2015-12-19T10:28:49Z</time>
      </trkpt>
      <trkpt lat="43.39675" lon="2.22691">
        <ele>667.29</ele>
        <time>2015-12-19T10:28:50Z</time>
      </trkpt>
      <trkpt lat="43.39677" lon="2.22689">
        <ele>667.77</ele>
        <time>2015-12-19T10:28:51Z</time>
      </trkpt>
      <trkpt lat="43.39678" lon="2.22688">
        <ele>668.25</ele>
        <time>2015-12-19T10:28:52Z</time>
      </trkpt>
      <trkpt lat="43.3968" lon="2.22686">
        <ele>668.25</ele>
        <time>2015-12-19T10:28:53Z</time>
      </trkpt>
      <trkpt lat="43.39681" lon="2.22684">
        <ele>668.25</ele>
        <time>2015-12-19T10:28:54Z</time>
      </trkpt>
      <trkpt lat="43.39683" lon="2.22682">
        <ele>668.73</ele>
        <time>2015-12-19T10:28:55Z</time>
      </trkpt>
      <trkpt lat="43.39684" lon="2.22679">
        <ele>668.25</ele>
        <time>2015-12-19T10:28:56Z</time>
      </trkpt>
      <trkpt lat="43.39686" lon="2.22677">
        <ele>669.22</ele>
        <time>2015-12-19T10:28:57Z</time>
      </trkpt>
      <trkpt lat="43.39696" lon="2.22663">
        <ele>669.7</ele>
        <time>2015-12-19T10:29:04Z</time>
      </trkpt>
      <trkpt lat="43.39707" lon="2.22645">
        <ele>669.7</ele>
        <time>2015-12-19T10:29:11Z</time>
      </trkpt>
      <trkpt lat="43.39716" lon="2.22634">
        <ele>670.18</ele>
        <time>2015-12-19T10:29:16Z</time>
      </trkpt>
      <trkpt lat="43.39718" lon="2.22632">
        <ele>670.66</ele>
        <time>2015-12-19T10:29:17Z</time>
      </trkpt>
      <trkpt lat="43.39719" lon="2.22629">
        <ele>670.18</ele>
        <time>2015-12-19T10:29:18Z</time>
      </trkpt>
      <trkpt lat="43.39721" lon="2.22626">
        <ele>670.66</ele>
        <time>2015-12-19T10:29:19Z</time>
      </trkpt>
      <trkpt lat="43.39723" lon="2.22623">
        <ele>669.7</ele>
        <time>2015-12-19T10:29:20Z</time>
      </trkpt>
      <trkpt lat="43.39725" lon="2.2262">
        <ele>670.66</ele>
        <time>2015-12-19T10:29:21Z</time>
      </trkpt>
      <trkpt lat="43.39727" lon="2.22617">
        <ele>670.66</ele>
        <time>2015-12-19T10:29:22Z</time>
      </trkpt>
      <trkpt lat="43.39729" lon="2.22614">
        <ele>670.18</ele>
        <time>2015-12-19T10:29:23Z</time>
      </trkpt>
      <trkpt lat="43.39731" lon="2.22611">
        <ele>670.66</ele>
        <time>2015-12-19T10:29:24Z</time>
      </trkpt>
      <trkpt lat="43.39732" lon="2.2261">
        <ele>670.18</ele>
        <time>2015-12-19T10:29:25Z</time>
      </trkpt>
      <trkpt lat="43.39734" lon="2.22608">
        <ele>670.66</ele>
        <time>2015-12-19T10:29:26Z</time>
      </trkpt>
      <trkpt lat="43.39737" lon="2.22605">
        <ele>670.66</ele>
        <time>2015-12-19T10:29:27Z</time>
      </trkpt>
      <trkpt lat="43.39739" lon="2.22602">
        <ele>670.66</ele>
        <time>2015-12-19T10:29:28Z</time>
      </trkpt>
      <trkpt lat="43.39741" lon="2.22599">
        <ele>671.14</ele>
        <time>2015-12-19T10:29:29Z</time>
      </trkpt>
      <trkpt lat="43.39758" lon="2.22579">
        <ele>671.62</ele>
        <time>2015-12-19T10:29:36Z</time>
      </trkpt>
      <trkpt lat="43.39775" lon="2.22563">
        <ele>671.14</ele>
        <time>2015-12-19T10:29:42Z</time>
      </trkpt>
      <trkpt lat="43.3979" lon="2.22551">
        <ele>671.62</ele>
        <time>2015-12-19T10:29:48Z</time>
      </trkpt>
      <trkpt lat="43.39812" lon="2.22548">
        <ele>673.54</ele>
        <time>2015-12-19T10:29:56Z</time>
      </trkpt>
      <trkpt lat="43.39828" lon="2.22554">
        <ele>674.02</ele>
        <time>2015-12-19T10:30:02Z</time>
      </trkpt>
      <trkpt lat="43.39851" lon="2.22563">
        <ele>675.46</ele>
        <time>2015-12-19T10:30:09Z</time>
      </trkpt>
      <trkpt lat="43.39877" lon="2.22575">
        <ele>677.87</ele>
        <time>2015-12-19T10:30:16Z</time>
      </trkpt>
      <trkpt lat="43.39899" lon="2.22581">
        <ele>677.87</ele>
        <time>2015-12-19T10:30:22Z</time>
      </trkpt>
      <trkpt lat="43.39906" lon="2.22584">
        <ele>678.35</ele>
        <time>2015-12-19T10:30:25Z</time>
      </trkpt>
      <trkpt lat="43.39909" lon="2.22585">
        <ele>678.35</ele>
        <time>2015-12-19T10:30:26Z</time>
      </trkpt>
      <trkpt lat="43.39911" lon="2.22585">
        <ele>678.35</ele>
        <time>2015-12-19T10:30:27Z</time>
      </trkpt>
      <trkpt lat="43.39913" lon="2.22586">
        <ele>677.87</ele>
        <time>2015-12-19T10:30:28Z</time>
      </trkpt>
      <trkpt lat="43.39915" lon="2.22587">
        <ele>678.83</ele>
        <time>2015-12-19T10:30:29Z</time>
      </trkpt>
      <trkpt lat="43.39917" lon="2.22588">
        <ele>679.31</ele>
        <time>2015-12-19T10:30:30Z</time>
      </trkpt>
      <trkpt lat="43.39919" lon="2.22588">
        <ele>678.35</ele>
        <time>2015-12-19T10:30:31Z</time>
      </trkpt>
      <trkpt lat="43.39921" lon="2.22589">
        <ele>678.83</ele>
        <time>2015-12-19T10:30:32Z</time>
      </trkpt>
      <trkpt lat="43.39938" lon="2.2259">
        <ele>679.31</ele>
        <time>2015-12-19T10:30:38Z</time>
      </trkpt>
      <trkpt lat="43.39952" lon="2.22592">
        <ele>680.27</ele>
        <time>2015-12-19T10:30:44Z</time>
      </trkpt>
      <trkpt lat="43.39969" lon="2.22596">
        <ele>681.23</ele>
        <time>2015-12-19T10:30:50Z</time>
      </trkpt>
      <trkpt lat="43.39971" lon="2.22596">
        <ele>681.23</ele>
        <time>2015-12-19T10:30:51Z</time>
      </trkpt>
      <trkpt lat="43.39988" lon="2.22603">
        <ele>682.67</ele>
        <time>2015-12-19T10:30:58Z</time>
      </trkpt>
      <trkpt lat="43.40008" lon="2.22612">
        <ele>684.12</ele>
        <time>2015-12-19T10:31:06Z</time>
      </trkpt>
      <trkpt lat="43.40026" lon="2.22621">
        <ele>684.6</ele>
        <time>2015-12-19T10:31:13Z</time>
      </trkpt>
      <trkpt lat="43.40042" lon="2.22629">
        <ele>685.08</ele>
        <time>2015-12-19T10:31:19Z</time>
      </trkpt>
      <trkpt lat="43.40068" lon="2.2265">
        <ele>686.52</ele>
        <time>2015-12-19T10:31:27Z</time>
      </trkpt>
      <trkpt lat="43.40081" lon="2.22666">
        <ele>688.92</ele>
        <time>2015-12-19T10:31:34Z</time>
      </trkpt>
      <trkpt lat="43.40098" lon="2.22683">
        <ele>691.33</ele>
        <time>2015-12-19T10:31:42Z</time>
      </trkpt>
      <trkpt lat="43.40115" lon="2.22687">
        <ele>693.73</ele>
        <time>2015-12-19T10:31:49Z</time>
      </trkpt>
      <trkpt lat="43.40133" lon="2.22681">
        <ele>694.69</ele>
        <time>2015-12-19T10:31:56Z</time>
      </trkpt>
      <trkpt lat="43.40149" lon="2.22682">
        <ele>696.61</ele>
        <time>2015-12-19T10:32:03Z</time>
      </trkpt>
      <trkpt lat="43.40151" lon="2.22683">
        <ele>697.09</ele>
        <time>2015-12-19T10:32:04Z</time>
      </trkpt>
      <trkpt lat="43.40153" lon="2.22684">
        <ele>697.09</ele>
        <time>2015-12-19T10:32:05Z</time>
      </trkpt>
      <trkpt lat="43.40156" lon="2.22686">
        <ele>697.57</ele>
        <time>2015-12-19T10:32:07Z</time>
      </trkpt>
      <trkpt lat="43.40158" lon="2.22686">
        <ele>698.53</ele>
        <time>2015-12-19T10:32:08Z</time>
      </trkpt>
      <trkpt lat="43.40159" lon="2.22685">
        <ele>698.53</ele>
        <time>2015-12-19T10:32:09Z</time>
      </trkpt>
      <trkpt lat="43.4018" lon="2.22667">
        <ele>697.57</ele>
        <time>2015-12-19T10:32:20Z</time>
      </trkpt>
      <trkpt lat="43.40199" lon="2.22656">
        <ele>699.5</ele>
        <time>2015-12-19T10:32:30Z</time>
      </trkpt>
      <trkpt lat="43.40213" lon="2.22655">
        <ele>700.46</ele>
        <time>2015-12-19T10:32:36Z</time>
      </trkpt>
      <trkpt lat="43.40231" lon="2.22655">
        <ele>702.38</ele>
        <time>2015-12-19T10:32:45Z</time>
      </trkpt>
      <trkpt lat="43.40248" lon="2.2266">
        <ele>703.82</ele>
        <time>2015-12-19T10:32:53Z</time>
      </trkpt>
      <trkpt lat="43.40262" lon="2.2267">
        <ele>705.26</ele>
        <time>2015-12-19T10:33:01Z</time>
      </trkpt>
      <trkpt lat="43.40275" lon="2.22684">
        <ele>707.19</ele>
        <time>2015-12-19T10:33:09Z</time>
      </trkpt>
      <trkpt lat="43.40288" lon="2.22702">
        <ele>710.55</ele>
        <time>2015-12-19T10:33:19Z</time>
      </trkpt>
      <trkpt lat="43.40289" lon="2.22704">
        <ele>710.55</ele>
        <time>2015-12-19T10:33:20Z</time>
      </trkpt>
      <trkpt lat="43.40289" lon="2.22706">
        <ele>710.55</ele>
        <time>2015-12-19T10:33:21Z</time>
      </trkpt>
      <trkpt lat="43.40288" lon="2.22729">
        <ele>713.92</ele>
        <time>2015-12-19T10:33:30Z</time>
      </trkpt>
      <trkpt lat="43.40285" lon="2.22749">
        <ele>715.84</ele>
        <time>2015-12-19T10:33:38Z</time>
      </trkpt>
      <trkpt lat="43.40281" lon="2.22768">
        <ele>718.72</ele>
        <time>2015-12-19T10:33:46Z</time>
      </trkpt>
      <trkpt lat="43.4028" lon="2.22772">
        <ele>719.2</ele>
        <time>2015-12-19T10:33:48Z</time>
      </trkpt>
      <trkpt lat="43.40279" lon="2.22774">
        <ele>719.68</ele>
        <time>2015-12-19T10:33:49Z</time>
      </trkpt>
      <trkpt lat="43.40279" lon="2.22776">
        <ele>720.16</ele>
        <time>2015-12-19T10:33:50Z</time>
      </trkpt>
      <trkpt lat="43.40279" lon="2.22778">
        <ele>720.16</ele>
        <time>2015-12-19T10:33:51Z</time>
      </trkpt>
      <trkpt lat="43.40278" lon="2.2278">
        <ele>720.65</ele>
        <time>2015-12-19T10:33:52Z</time>
      </trkpt>
      <trkpt lat="43.40278" lon="2.22783">
        <ele>720.16</ele>
        <time>2015-12-19T10:33:53Z</time>
      </trkpt>
      <trkpt lat="43.40275" lon="2.22803">
        <ele>722.57</ele>
        <time>2015-12-19T10:34:02Z</time>
      </trkpt>
      <trkpt lat="43.40271" lon="2.22827">
        <ele>725.45</ele>
        <time>2015-12-19T10:34:14Z</time>
      </trkpt>
      <trkpt lat="43.4027" lon="2.2284">
        <ele>725.93</ele>
        <time>2015-12-19T10:34:21Z</time>
      </trkpt>
      <trkpt lat="43.40271" lon="2.22842">
        <ele>726.41</ele>
        <time>2015-12-19T10:34:22Z</time>
      </trkpt>
      <trkpt lat="43.40271" lon="2.22843">
        <ele>726.41</ele>
        <time>2015-12-19T10:34:23Z</time>
      </trkpt>
      <trkpt lat="43.40272" lon="2.22845">
        <ele>726.41</ele>
        <time>2015-12-19T10:34:24Z</time>
      </trkpt>
      <trkpt lat="43.40272" lon="2.22846">
        <ele>726.89</ele>
        <time>2015-12-19T10:34:25Z</time>
      </trkpt>
      <trkpt lat="43.40272" lon="2.22848">
        <ele>726.89</ele>
        <time>2015-12-19T10:34:26Z</time>
      </trkpt>
      <trkpt lat="43.40271" lon="2.22851">
        <ele>727.86</ele>
        <time>2015-12-19T10:34:28Z</time>
      </trkpt>
      <trkpt lat="43.40271" lon="2.22853">
        <ele>726.89</ele>
        <time>2015-12-19T10:34:29Z</time>
      </trkpt>
      <trkpt lat="43.4027" lon="2.22858">
        <ele>727.86</ele>
        <time>2015-12-19T10:34:32Z</time>
      </trkpt>
      <trkpt lat="43.4027" lon="2.22876">
        <ele>729.78</ele>
        <time>2015-12-19T10:34:43Z</time>
      </trkpt>
      <trkpt lat="43.4027" lon="2.22877">
        <ele>730.26</ele>
        <time>2015-12-19T10:34:44Z</time>
      </trkpt>
      <trkpt lat="43.40271" lon="2.22879">
        <ele>730.74</ele>
        <time>2015-12-19T10:34:45Z</time>
      </trkpt>
      <trkpt lat="43.40271" lon="2.22881">
        <ele>729.78</ele>
        <time>2015-12-19T10:34:46Z</time>
      </trkpt>
      <trkpt lat="43.40272" lon="2.22882">
        <ele>729.78</ele>
        <time>2015-12-19T10:34:47Z</time>
      </trkpt>
      <trkpt lat="43.40273" lon="2.22883">
        <ele>730.74</ele>
        <time>2015-12-19T10:34:48Z</time>
      </trkpt>
      <trkpt lat="43.40274" lon="2.22884">
        <ele>730.74</ele>
        <time>2015-12-19T10:34:49Z</time>
      </trkpt>
      <trkpt lat="43.40275" lon="2.22885">
        <ele>730.74</ele>
        <time>2015-12-19T10:34:50Z</time>
      </trkpt>
      <trkpt lat="43.40276" lon="2.22886">
        <ele>730.74</ele>
        <time>2015-12-19T10:34:51Z</time>
      </trkpt>
      <trkpt lat="43.40277" lon="2.22886">
        <ele>731.22</ele>
        <time>2015-12-19T10:34:52Z</time>
      </trkpt>
      <trkpt lat="43.40278" lon="2.22887">
        <ele>731.22</ele>
        <time>2015-12-19T10:34:53Z</time>
      </trkpt>
      <trkpt lat="43.40279" lon="2.22889">
        <ele>730.26</ele>
        <time>2015-12-19T10:34:54Z</time>
      </trkpt>
      <trkpt lat="43.40288" lon="2.22901">
        <ele>729.78</ele>
        <time>2015-12-19T10:35:03Z</time>
      </trkpt>
      <trkpt lat="43.40298" lon="2.22912">
        <ele>730.74</ele>
        <time>2015-12-19T10:35:11Z</time>
      </trkpt>
      <trkpt lat="43.40309" lon="2.22932">
        <ele>731.7</ele>
        <time>2015-12-19T10:35:20Z</time>
      </trkpt>
      <trkpt lat="43.40317" lon="2.22956">
        <ele>732.18</ele>
        <time>2015-12-19T10:35:29Z</time>
      </trkpt>
      <trkpt lat="43.40321" lon="2.22972">
        <ele>732.18</ele>
        <time>2015-12-19T10:35:35Z</time>
      </trkpt>
      <trkpt lat="43.40327" lon="2.22996">
        <ele>732.66</ele>
        <time>2015-12-19T10:35:44Z</time>
      </trkpt>
      <trkpt lat="43.40327" lon="2.22999">
        <ele>732.66</ele>
        <time>2015-12-19T10:35:45Z</time>
      </trkpt>
      <trkpt lat="43.40327" lon="2.23002">
        <ele>732.66</ele>
        <time>2015-12-19T10:35:46Z</time>
      </trkpt>
      <trkpt lat="43.40327" lon="2.23006">
        <ele>732.66</ele>
        <time>2015-12-19T10:35:47Z</time>
      </trkpt>
      <trkpt lat="43.40328" lon="2.23009">
        <ele>732.66</ele>
        <time>2015-12-19T10:35:48Z</time>
      </trkpt>
      <trkpt lat="43.40328" lon="2.23011">
        <ele>732.66</ele>
        <time>2015-12-19T10:35:49Z</time>
      </trkpt>
      <trkpt lat="43.40336" lon="2.2303">
        <ele>732.66</ele>
        <time>2015-12-19T10:35:57Z</time>
      </trkpt>
      <trkpt lat="43.40347" lon="2.23044">
        <ele>731.22</ele>
        <time>2015-12-19T10:36:05Z</time>
      </trkpt>
      <trkpt lat="43.40363" lon="2.23065">
        <ele>730.74</ele>
        <time>2015-12-19T10:36:14Z</time>
      </trkpt>
      <trkpt lat="43.40378" lon="2.23089">
        <ele>729.78</ele>
        <time>2015-12-19T10:36:22Z</time>
      </trkpt>
      <trkpt lat="43.4038" lon="2.23115">
        <ele>729.78</ele>
        <time>2015-12-19T10:36:29Z</time>
      </trkpt>
      <trkpt lat="43.4038" lon="2.23152">
        <ele>729.78</ele>
        <time>2015-12-19T10:36:37Z</time>
      </trkpt>
      <trkpt lat="43.40389" lon="2.23186">
        <ele>729.3</ele>
        <time>2015-12-19T10:36:45Z</time>
      </trkpt>
      <trkpt lat="43.40406" lon="2.23192">
        <ele>728.82</ele>
        <time>2015-12-19T10:36:50Z</time>
      </trkpt>
      <trkpt lat="43.40432" lon="2.23182">
        <ele>730.26</ele>
        <time>2015-12-19T10:36:58Z</time>
      </trkpt>
      <trkpt lat="43.40462" lon="2.23169">
        <ele>729.78</ele>
        <time>2015-12-19T10:37:07Z</time>
      </trkpt>
      <trkpt lat="43.40489" lon="2.23168">
        <ele>729.78</ele>
        <time>2015-12-19T10:37:14Z</time>
      </trkpt>
      <trkpt lat="43.40512" lon="2.2318">
        <ele>729.3</ele>
        <time>2015-12-19T10:37:20Z</time>
      </trkpt>
      <trkpt lat="43.4054" lon="2.23206">
        <ele>729.3</ele>
        <time>2015-12-19T10:37:28Z</time>
      </trkpt>
      <trkpt lat="43.40544" lon="2.23209">
        <ele>728.82</ele>
        <time>2015-12-19T10:37:29Z</time>
      </trkpt>
      <trkpt lat="43.40548" lon="2.23211">
        <ele>729.3</ele>
        <time>2015-12-19T10:37:30Z</time>
      </trkpt>
      <trkpt lat="43.40553" lon="2.23212">
        <ele>729.3</ele>
        <time>2015-12-19T10:37:31Z</time>
      </trkpt>
      <trkpt lat="43.40557" lon="2.23212">
        <ele>728.82</ele>
        <time>2015-12-19T10:37:32Z</time>
      </trkpt>
      <trkpt lat="43.40562" lon="2.23211">
        <ele>728.82</ele>
        <time>2015-12-19T10:37:33Z</time>
      </trkpt>
      <trkpt lat="43.40566" lon="2.2321">
        <ele>728.82</ele>
        <time>2015-12-19T10:37:34Z</time>
      </trkpt>
      <trkpt lat="43.40593" lon="2.23205">
        <ele>729.3</ele>
        <time>2015-12-19T10:37:41Z</time>
      </trkpt>
      <trkpt lat="43.40629" lon="2.23205">
        <ele>729.3</ele>
        <time>2015-12-19T10:37:50Z</time>
      </trkpt>
      <trkpt lat="43.4066" lon="2.23212">
        <ele>729.78</ele>
        <time>2015-12-19T10:37:58Z</time>
      </trkpt>
      <trkpt lat="43.40689" lon="2.23221">
        <ele>729.3</ele>
        <time>2015-12-19T10:38:05Z</time>
      </trkpt>
      <trkpt lat="43.4071" lon="2.23243">
        <ele>729.78</ele>
        <time>2015-12-19T10:38:11Z</time>
      </trkpt>
      <trkpt lat="43.40734" lon="2.23292">
        <ele>729.3</ele>
        <time>2015-12-19T10:38:21Z</time>
      </trkpt>
      <trkpt lat="43.40736" lon="2.23297">
        <ele>729.78</ele>
        <time>2015-12-19T10:38:22Z</time>
      </trkpt>
      <trkpt lat="43.40738" lon="2.23302">
        <ele>729.78</ele>
        <time>2015-12-19T10:38:23Z</time>
      </trkpt>
      <trkpt lat="43.40766" lon="2.2337">
        <ele>729.78</ele>
        <time>2015-12-19T10:38:35Z</time>
      </trkpt>
      <trkpt lat="43.40787" lon="2.23431">
        <ele>729.78</ele>
        <time>2015-12-19T10:38:45Z</time>
      </trkpt>
      <trkpt lat="43.40811" lon="2.23498">
        <ele>730.74</ele>
        <time>2015-12-19T10:38:56Z</time>
      </trkpt>
      <trkpt lat="43.40832" lon="2.2355">
        <ele>729.78</ele>
        <time>2015-12-19T10:39:05Z</time>
      </trkpt>
      <trkpt lat="43.40849" lon="2.2361">
        <ele>730.74</ele>
        <time>2015-12-19T10:39:15Z</time>
      </trkpt>
      <trkpt lat="43.4085" lon="2.23616">
        <ele>731.22</ele>
        <time>2015-12-19T10:39:16Z</time>
      </trkpt>
      <trkpt lat="43.40853" lon="2.23627">
        <ele>730.74</ele>
        <time>2015-12-19T10:39:18Z</time>
      </trkpt>
      <trkpt lat="43.40859" lon="2.23642">
        <ele>731.22</ele>
        <time>2015-12-19T10:39:21Z</time>
      </trkpt>
      <trkpt lat="43.40862" lon="2.23646">
        <ele>732.18</ele>
        <time>2015-12-19T10:39:22Z</time>
      </trkpt>
      <trkpt lat="43.40865" lon="2.23649">
        <ele>732.18</ele>
        <time>2015-12-19T10:39:23Z</time>
      </trkpt>
      <trkpt lat="43.40868" lon="2.23652">
        <ele>732.18</ele>
        <time>2015-12-19T10:39:24Z</time>
      </trkpt>
      <trkpt lat="43.40872" lon="2.23652">
        <ele>731.7</ele>
        <time>2015-12-19T10:39:25Z</time>
      </trkpt>
      <trkpt lat="43.40876" lon="2.23651">
        <ele>731.7</ele>
        <time>2015-12-19T10:39:26Z</time>
      </trkpt>
      <trkpt lat="43.4088" lon="2.23647">
        <ele>731.22</ele>
        <time>2015-12-19T10:39:27Z</time>
      </trkpt>
      <trkpt lat="43.40881" lon="2.23641">
        <ele>730.74</ele>
        <time>2015-12-19T10:39:28Z</time>
      </trkpt>
      <trkpt lat="43.4088" lon="2.23635">
        <ele>729.78</ele>
        <time>2015-12-19T10:39:29Z</time>
      </trkpt>
      <trkpt lat="43.40879" lon="2.23629">
        <ele>730.26</ele>
        <time>2015-12-19T10:39:30Z</time>
      </trkpt>
      <trkpt lat="43.40877" lon="2.23624">
        <ele>730.26</ele>
        <time>2015-12-19T10:39:31Z</time>
      </trkpt>
      <trkpt lat="43.40875" lon="2.23618">
        <ele>730.26</ele>
        <time>2015-12-19T10:39:32Z</time>
      </trkpt>
      <trkpt lat="43.4087" lon="2.2357">
        <ele>730.26</ele>
        <time>2015-12-19T10:39:40Z</time>
      </trkpt>
      <trkpt lat="43.40866" lon="2.2351">
        <ele>730.26</ele>
        <time>2015-12-19T10:39:50Z</time>
      </trkpt>
      <trkpt lat="43.40858" lon="2.2345">
        <ele>730.74</ele>
        <time>2015-12-19T10:40:00Z</time>
      </trkpt>
      <trkpt lat="43.40856" lon="2.23413">
        <ele>730.74</ele>
        <time>2015-12-19T10:40:06Z</time>
      </trkpt>
      <trkpt lat="43.40857" lon="2.23407">
        <ele>730.74</ele>
        <time>2015-12-19T10:40:07Z</time>
      </trkpt>
      <trkpt lat="43.40857" lon="2.23373">
        <ele>730.26</ele>
        <time>2015-12-19T10:40:14Z</time>
      </trkpt>
      <trkpt lat="43.40854" lon="2.23332">
        <ele>729.78</ele>
        <time>2015-12-19T10:40:23Z</time>
      </trkpt>
      <trkpt lat="43.40856" lon="2.23302">
        <ele>729.78</ele>
        <time>2015-12-19T10:40:28Z</time>
      </trkpt>
      <trkpt lat="43.40858" lon="2.23296">
        <ele>729.78</ele>
        <time>2015-12-19T10:40:29Z</time>
      </trkpt>
      <trkpt lat="43.40861" lon="2.23291">
        <ele>729.78</ele>
        <time>2015-12-19T10:40:30Z</time>
      </trkpt>
      <trkpt lat="43.40865" lon="2.23287">
        <ele>729.78</ele>
        <time>2015-12-19T10:40:31Z</time>
      </trkpt>
      <trkpt lat="43.40869" lon="2.23284">
        <ele>729.3</ele>
        <time>2015-12-19T10:40:32Z</time>
      </trkpt>
      <trkpt lat="43.40872" lon="2.23281">
        <ele>729.78</ele>
        <time>2015-12-19T10:40:33Z</time>
      </trkpt>
      <trkpt lat="43.40876" lon="2.2328">
        <ele>729.78</ele>
        <time>2015-12-19T10:40:34Z</time>
      </trkpt>
      <trkpt lat="43.40879" lon="2.23281">
        <ele>729.78</ele>
        <time>2015-12-19T10:40:35Z</time>
      </trkpt>
      <trkpt lat="43.40881" lon="2.23283">
        <ele>729.78</ele>
        <time>2015-12-19T10:40:36Z</time>
      </trkpt>
      <trkpt lat="43.40883" lon="2.23286">
        <ele>730.26</ele>
        <time>2015-12-19T10:40:37Z</time>
      </trkpt>
      <trkpt lat="43.40891" lon="2.233">
        <ele>731.7</ele>
        <time>2015-12-19T10:40:43Z</time>
      </trkpt>
      <trkpt lat="43.40901" lon="2.23307">
        <ele>734.1</ele>
        <time>2015-12-19T10:40:49Z</time>
      </trkpt>
      <trkpt lat="43.40913" lon="2.23314">
        <ele>735.55</ele>
        <time>2015-12-19T10:40:56Z</time>
      </trkpt>
      <trkpt lat="43.4092" lon="2.23317">
        <ele>737.47</ele>
        <time>2015-12-19T10:41:00Z</time>
      </trkpt>
      <trkpt lat="43.40921" lon="2.23317">
        <ele>737.47</ele>
        <time>2015-12-19T10:41:01Z</time>
      </trkpt>
      <trkpt lat="43.40923" lon="2.23318">
        <ele>736.99</ele>
        <time>2015-12-19T10:41:02Z</time>
      </trkpt>
      <trkpt lat="43.40924" lon="2.23319">
        <ele>737.95</ele>
        <time>2015-12-19T10:41:03Z</time>
      </trkpt>
      <trkpt lat="43.40926" lon="2.23321">
        <ele>738.91</ele>
        <time>2015-12-19T10:41:04Z</time>
      </trkpt>
      <trkpt lat="43.40939" lon="2.23325">
        <ele>740.35</ele>
        <time>2015-12-19T10:41:11Z</time>
      </trkpt>
      <trkpt lat="43.40951" lon="2.2333">
        <ele>742.76</ele>
        <time>2015-12-19T10:41:19Z</time>
      </trkpt>
      <trkpt lat="43.40963" lon="2.23341">
        <ele>745.16</ele>
        <time>2015-12-19T10:41:26Z</time>
      </trkpt>
      <trkpt lat="43.40966" lon="2.23356">
        <ele>746.6</ele>
        <time>2015-12-19T10:41:34Z</time>
      </trkpt>
      <trkpt lat="43.40964" lon="2.23361">
        <ele>747.08</ele>
        <time>2015-12-19T10:41:37Z</time>
      </trkpt>
      <trkpt lat="43.40963" lon="2.23379">
        <ele>748.52</ele>
        <time>2015-12-19T10:41:45Z</time>
      </trkpt>
      <trkpt lat="43.40961" lon="2.23397">
        <ele>749.97</ele>
        <time>2015-12-19T10:41:54Z</time>
      </trkpt>
      <trkpt lat="43.40966" lon="2.2342">
        <ele>750.93</ele>
        <time>2015-12-19T10:42:01Z</time>
      </trkpt>
      <trkpt lat="43.40973" lon="2.23441">
        <ele>752.37</ele>
        <time>2015-12-19T10:42:10Z</time>
      </trkpt>
      <trkpt lat="43.4098" lon="2.23458">
        <ele>753.81</ele>
        <time>2015-12-19T10:42:19Z</time>
      </trkpt>
      <trkpt lat="43.40984" lon="2.23478">
        <ele>755.73</ele>
        <time>2015-12-19T10:42:28Z</time>
      </trkpt>
      <trkpt lat="43.40988" lon="2.23501">
        <ele>756.21</ele>
        <time>2015-12-19T10:42:37Z</time>
      </trkpt>
      <trkpt lat="43.4099" lon="2.23517">
        <ele>757.18</ele>
        <time>2015-12-19T10:42:43Z</time>
      </trkpt>
      <trkpt lat="43.40994" lon="2.23547">
        <ele>758.14</ele>
        <time>2015-12-19T10:42:53Z</time>
      </trkpt>
      <trkpt lat="43.40997" lon="2.23573">
        <ele>759.58</ele>
        <time>2015-12-19T10:43:02Z</time>
      </trkpt>
      <trkpt lat="43.41" lon="2.23592">
        <ele>760.54</ele>
        <time>2015-12-19T10:43:09Z</time>
      </trkpt>
      <trkpt lat="43.41008" lon="2.23614">
        <ele>761.02</ele>
        <time>2015-12-19T10:43:17Z</time>
      </trkpt>
      <trkpt lat="43.41016" lon="2.23632">
        <ele>762.94</ele>
        <time>2015-12-19T10:43:25Z</time>
      </trkpt>
      <trkpt lat="43.41017" lon="2.23634">
        <ele>762.94</ele>
        <time>2015-12-19T10:43:26Z</time>
      </trkpt>
      <trkpt lat="43.41026" lon="2.23657">
        <ele>764.39</ele>
        <time>2015-12-19T10:43:36Z</time>
      </trkpt>
      <trkpt lat="43.41038" lon="2.2368">
        <ele>765.83</ele>
        <time>2015-12-19T10:43:47Z</time>
      </trkpt>
      <trkpt lat="43.41043" lon="2.23692">
        <ele>766.79</ele>
        <time>2015-12-19T10:43:54Z</time>
      </trkpt>
      <trkpt lat="43.41049" lon="2.237">
        <ele>767.75</ele>
        <time>2015-12-19T10:45:40Z</time>
      </trkpt>
      <trkpt lat="43.41051" lon="2.237">
        <ele>768.23</ele>
        <time>2015-12-19T10:45:41Z</time>
      </trkpt>
      <trkpt lat="43.41064" lon="2.23706">
        <ele>770.63</ele>
        <time>2015-12-19T10:45:50Z</time>
      </trkpt>
      <trkpt lat="43.41075" lon="2.2371">
        <ele>772.08</ele>
        <time>2015-12-19T10:45:57Z</time>
      </trkpt>
      <trkpt lat="43.41087" lon="2.23718">
        <ele>773.52</ele>
        <time>2015-12-19T10:46:05Z</time>
      </trkpt>
      <trkpt lat="43.411" lon="2.23726">
        <ele>775.44</ele>
        <time>2015-12-19T10:46:13Z</time>
      </trkpt>
      <trkpt lat="43.41113" lon="2.23736">
        <ele>777.36</ele>
        <time>2015-12-19T10:46:21Z</time>
      </trkpt>
      <trkpt lat="43.41115" lon="2.23738">
        <ele>777.36</ele>
        <time>2015-12-19T10:46:22Z</time>
      </trkpt>
      <trkpt lat="43.41123" lon="2.23745">
        <ele>778.32</ele>
        <time>2015-12-19T10:46:29Z</time>
      </trkpt>
      <trkpt lat="43.4113" lon="2.23751">
        <ele>779.77</ele>
        <time>2015-12-19T10:46:34Z</time>
      </trkpt>
      <trkpt lat="43.41132" lon="2.23752">
        <ele>779.77</ele>
        <time>2015-12-19T10:46:35Z</time>
      </trkpt>
      <trkpt lat="43.41133" lon="2.23754">
        <ele>780.25</ele>
        <time>2015-12-19T10:46:36Z</time>
      </trkpt>
      <trkpt lat="43.41144" lon="2.23766">
        <ele>782.17</ele>
        <time>2015-12-19T10:46:44Z</time>
      </trkpt>
      <trkpt lat="43.4116" lon="2.23774">
        <ele>783.13</ele>
        <time>2015-12-19T10:46:52Z</time>
      </trkpt>
      <trkpt lat="43.41176" lon="2.23784">
        <ele>784.57</ele>
        <time>2015-12-19T10:46:59Z</time>
      </trkpt>
      <trkpt lat="43.41189" lon="2.23794">
        <ele>785.53</ele>
        <time>2015-12-19T10:47:05Z</time>
      </trkpt>
      <trkpt lat="43.41204" lon="2.23802">
        <ele>786.98</ele>
        <time>2015-12-19T10:47:12Z</time>
      </trkpt>
      <trkpt lat="43.41219" lon="2.23809">
        <ele>786.98</ele>
        <time>2015-12-19T10:47:18Z</time>
      </trkpt>
      <trkpt lat="43.41238" lon="2.23822">
        <ele>788.9</ele>
        <time>2015-12-19T10:47:26Z</time>
      </trkpt>
      <trkpt lat="43.41257" lon="2.23836">
        <ele>789.38</ele>
        <time>2015-12-19T10:47:34Z</time>
      </trkpt>
      <trkpt lat="43.41283" lon="2.2385">
        <ele>789.86</ele>
        <time>2015-12-19T10:47:42Z</time>
      </trkpt>
      <trkpt lat="43.41301" lon="2.23861">
        <ele>789.86</ele>
        <time>2015-12-19T10:47:48Z</time>
      </trkpt>
      <trkpt lat="43.41326" lon="2.23871">
        <ele>791.78</ele>
        <time>2015-12-19T10:47:56Z</time>
      </trkpt>
      <trkpt lat="43.4134" lon="2.2386">
        <ele>791.78</ele>
        <time>2015-12-19T10:48:01Z</time>
      </trkpt>
      <trkpt lat="43.41355" lon="2.23849">
        <ele>791.78</ele>
        <time>2015-12-19T10:48:06Z</time>
      </trkpt>
      <trkpt lat="43.41382" lon="2.23838">
        <ele>790.82</ele>
        <time>2015-12-19T10:48:13Z</time>
      </trkpt>
      <trkpt lat="43.41397" lon="2.23835">
        <ele>790.34</ele>
        <time>2015-12-19T10:48:16Z</time>
      </trkpt>
      <trkpt lat="43.41406" lon="2.23836">
        <ele>789.86</ele>
        <time>2015-12-19T10:48:18Z</time>
      </trkpt>
      <trkpt lat="43.41427" lon="2.23842">
        <ele>788.42</ele>
        <time>2015-12-19T10:48:23Z</time>
      </trkpt>
      <trkpt lat="43.41431" lon="2.23844">
        <ele>788.42</ele>
        <time>2015-12-19T10:48:24Z</time>
      </trkpt>
      <trkpt lat="43.41435" lon="2.23847">
        <ele>787.94</ele>
        <time>2015-12-19T10:48:25Z</time>
      </trkpt>
      <trkpt lat="43.41448" lon="2.23856">
        <ele>787.46</ele>
        <time>2015-12-19T10:48:28Z</time>
      </trkpt>
      <trkpt lat="43.41456" lon="2.23863">
        <ele>786.98</ele>
        <time>2015-12-19T10:48:30Z</time>
      </trkpt>
      <trkpt lat="43.41461" lon="2.23867">
        <ele>786.5</ele>
        <time>2015-12-19T10:48:31Z</time>
      </trkpt>
      <trkpt lat="43.41465" lon="2.23871">
        <ele>786.02</ele>
        <time>2015-12-19T10:48:32Z</time>
      </trkpt>
      <trkpt lat="43.41481" lon="2.23886">
        <ele>785.05</ele>
        <time>2015-12-19T10:48:35Z</time>
      </trkpt>
      <trkpt lat="43.41515" lon="2.23923">
        <ele>784.09</ele>
        <time>2015-12-19T10:48:42Z</time>
      </trkpt>
      <trkpt lat="43.41544" lon="2.23951">
        <ele>782.17</ele>
        <time>2015-12-19T10:48:47Z</time>
      </trkpt>
      <trkpt lat="43.41576" lon="2.23985">
        <ele>779.29</ele>
        <time>2015-12-19T10:48:52Z</time>
      </trkpt>
      <trkpt lat="43.41589" lon="2.24">
        <ele>778.32</ele>
        <time>2015-12-19T10:48:54Z</time>
      </trkpt>
      <trkpt lat="43.41595" lon="2.24006">
        <ele>777.36</ele>
        <time>2015-12-19T10:48:55Z</time>
      </trkpt>
      <trkpt lat="43.41601" lon="2.2401">
        <ele>776.88</ele>
        <time>2015-12-19T10:48:56Z</time>
      </trkpt>
      <trkpt lat="43.41607" lon="2.24013">
        <ele>777.36</ele>
        <time>2015-12-19T10:48:57Z</time>
      </trkpt>
      <trkpt lat="43.41649" lon="2.24025">
        <ele>779.29</ele>
        <time>2015-12-19T10:49:04Z</time>
      </trkpt>
      <trkpt lat="43.41654" lon="2.24026">
        <ele>779.29</ele>
        <time>2015-12-19T10:49:05Z</time>
      </trkpt>
      <trkpt lat="43.41683" lon="2.24031">
        <ele>781.21</ele>
        <time>2015-12-19T10:49:12Z</time>
      </trkpt>
      <trkpt lat="43.41692" lon="2.24033">
        <ele>781.21</ele>
        <time>2015-12-19T10:49:14Z</time>
      </trkpt>
      <trkpt lat="43.41696" lon="2.24035">
        <ele>781.21</ele>
        <time>2015-12-19T10:49:15Z</time>
      </trkpt>
      <trkpt lat="43.41719" lon="2.24045">
        <ele>780.25</ele>
        <time>2015-12-19T10:49:20Z</time>
      </trkpt>
      <trkpt lat="43.41748" lon="2.24072">
        <ele>778.32</ele>
        <time>2015-12-19T10:49:26Z</time>
      </trkpt>
      <trkpt lat="43.4177" lon="2.24107">
        <ele>777.36</ele>
        <time>2015-12-19T10:49:31Z</time>
      </trkpt>
      <trkpt lat="43.41773" lon="2.24115">
        <ele>777.84</ele>
        <time>2015-12-19T10:49:32Z</time>
      </trkpt>
      <trkpt lat="43.41782" lon="2.24139">
        <ele>776.4</ele>
        <time>2015-12-19T10:49:35Z</time>
      </trkpt>
      <trkpt lat="43.41785" lon="2.24148">
        <ele>775.92</ele>
        <time>2015-12-19T10:49:36Z</time>
      </trkpt>
      <trkpt lat="43.41793" lon="2.24174">
        <ele>774.96</ele>
        <time>2015-12-19T10:49:39Z</time>
      </trkpt>
      <trkpt lat="43.41795" lon="2.24183">
        <ele>774</ele>
        <time>2015-12-19T10:49:40Z</time>
      </trkpt>
      <trkpt lat="43.41803" lon="2.24206">
        <ele>774.48</ele>
        <time>2015-12-19T10:49:43Z</time>
      </trkpt>
      <trkpt lat="43.41806" lon="2.24212">
        <ele>773.52</ele>
        <time>2015-12-19T10:49:44Z</time>
      </trkpt>
      <trkpt lat="43.41811" lon="2.24216">
        <ele>774</ele>
        <time>2015-12-19T10:49:45Z</time>
      </trkpt>
      <trkpt lat="43.41816" lon="2.24218">
        <ele>773.52</ele>
        <time>2015-12-19T10:49:46Z</time>
      </trkpt>
      <trkpt lat="43.41822" lon="2.24218">
        <ele>773.52</ele>
        <time>2015-12-19T10:49:47Z</time>
      </trkpt>
      <trkpt lat="43.41827" lon="2.24216">
        <ele>773.52</ele>
        <time>2015-12-19T10:49:48Z</time>
      </trkpt>
      <trkpt lat="43.41833" lon="2.24214">
        <ele>774</ele>
        <time>2015-12-19T10:49:49Z</time>
      </trkpt>
      <trkpt lat="43.41847" lon="2.24206">
        <ele>774</ele>
        <time>2015-12-19T10:49:52Z</time>
      </trkpt>
      <trkpt lat="43.41852" lon="2.24204">
        <ele>774</ele>
        <time>2015-12-19T10:49:53Z</time>
      </trkpt>
      <trkpt lat="43.41857" lon="2.24203">
        <ele>773.04</ele>
        <time>2015-12-19T10:49:54Z</time>
      </trkpt>
      <trkpt lat="43.41862" lon="2.24202">
        <ele>773.52</ele>
        <time>2015-12-19T10:49:55Z</time>
      </trkpt>
      <trkpt lat="43.41867" lon="2.24202">
        <ele>774</ele>
        <time>2015-12-19T10:49:56Z</time>
      </trkpt>
      <trkpt lat="43.41905" lon="2.24204">
        <ele>772.56</ele>
        <time>2015-12-19T10:50:03Z</time>
      </trkpt>
      <trkpt lat="43.41923" lon="2.24209">
        <ele>772.08</ele>
        <time>2015-12-19T10:50:08Z</time>
      </trkpt>
      <trkpt lat="43.41926" lon="2.24211">
        <ele>771.6</ele>
        <time>2015-12-19T10:50:13Z</time>
      </trkpt>
      <trkpt lat="43.41926" lon="2.24214">
        <ele>770.15</ele>
        <time>2015-12-19T10:50:20Z</time>
      </trkpt>
      <trkpt lat="43.41924" lon="2.24216">
        <ele>770.63</ele>
        <time>2015-12-19T10:50:27Z</time>
      </trkpt>
      <trkpt lat="43.41918" lon="2.24214">
        <ele>772.08</ele>
        <time>2015-12-19T10:50:34Z</time>
      </trkpt>
      <trkpt lat="43.41912" lon="2.24218">
        <ele>773.52</ele>
        <time>2015-12-19T10:50:43Z</time>
      </trkpt>
      <trkpt lat="43.41904" lon="2.2422">
        <ele>774.48</ele>
        <time>2015-12-19T10:50:50Z</time>
      </trkpt>
      <trkpt lat="43.41894" lon="2.24226">
        <ele>776.88</ele>
        <time>2015-12-19T10:50:58Z</time>
      </trkpt>
      <trkpt lat="43.41889" lon="2.24231">
        <ele>778.32</ele>
        <time>2015-12-19T10:51:04Z</time>
      </trkpt>
      <trkpt lat="43.41878" lon="2.24241">
        <ele>779.77</ele>
        <time>2015-12-19T10:51:12Z</time>
      </trkpt>
      <trkpt lat="43.41867" lon="2.24253">
        <ele>781.21</ele>
        <time>2015-12-19T10:51:21Z</time>
      </trkpt>
      <trkpt lat="43.41867" lon="2.24254">
        <ele>781.21</ele>
        <time>2015-12-19T10:51:22Z</time>
      </trkpt>
      <trkpt lat="43.41865" lon="2.24258">
        <ele>782.17</ele>
        <time>2015-12-19T10:51:24Z</time>
      </trkpt>
      <trkpt lat="43.41865" lon="2.24263">
        <ele>783.61</ele>
        <time>2015-12-19T10:51:27Z</time>
      </trkpt>
      <trkpt lat="43.41868" lon="2.24265">
        <ele>784.57</ele>
        <time>2015-12-19T10:51:30Z</time>
      </trkpt>
      <trkpt lat="43.41869" lon="2.24267">
        <ele>784.09</ele>
        <time>2015-12-19T10:51:31Z</time>
      </trkpt>
      <trkpt lat="43.41873" lon="2.24274">
        <ele>785.53</ele>
        <time>2015-12-19T10:51:36Z</time>
      </trkpt>
      <trkpt lat="43.41874" lon="2.24276">
        <ele>785.53</ele>
        <time>2015-12-19T10:51:37Z</time>
      </trkpt>
      <trkpt lat="43.41874" lon="2.24278">
        <ele>786.02</ele>
        <time>2015-12-19T10:51:38Z</time>
      </trkpt>
      <trkpt lat="43.41874" lon="2.24281">
        <ele>786.02</ele>
        <time>2015-12-19T10:51:40Z</time>
      </trkpt>
      <trkpt lat="43.41871" lon="2.24287">
        <ele>787.46</ele>
        <time>2015-12-19T10:51:44Z</time>
      </trkpt>
      <trkpt lat="43.4187" lon="2.24289">
        <ele>786.98</ele>
        <time>2015-12-19T10:51:45Z</time>
      </trkpt>
      <trkpt lat="43.41863" lon="2.24299">
        <ele>788.42</ele>
        <time>2015-12-19T10:51:52Z</time>
      </trkpt>
      <trkpt lat="43.41854" lon="2.2431">
        <ele>789.86</ele>
        <time>2015-12-19T10:52:01Z</time>
      </trkpt>
      <trkpt lat="43.41851" lon="2.24317">
        <ele>791.78</ele>
        <time>2015-12-19T10:52:06Z</time>
      </trkpt>
      <trkpt lat="43.41847" lon="2.24323">
        <ele>793.22</ele>
        <time>2015-12-19T10:52:11Z</time>
      </trkpt>
      <trkpt lat="43.41842" lon="2.24333">
        <ele>792.74</ele>
        <time>2015-12-19T10:52:18Z</time>
      </trkpt>
      <trkpt lat="43.41838" lon="2.2434">
        <ele>793.71</ele>
        <time>2015-12-19T10:52:23Z</time>
      </trkpt>
      <trkpt lat="43.41831" lon="2.24353">
        <ele>794.67</ele>
        <time>2015-12-19T10:52:30Z</time>
      </trkpt>
      <trkpt lat="43.41826" lon="2.24368">
        <ele>797.07</ele>
        <time>2015-12-19T10:52:38Z</time>
      </trkpt>
      <trkpt lat="43.4182" lon="2.24382">
        <ele>798.51</ele>
        <time>2015-12-19T10:52:46Z</time>
      </trkpt>
      <trkpt lat="43.41819" lon="2.24388">
        <ele>799.47</ele>
        <time>2015-12-19T10:52:49Z</time>
      </trkpt>
      <trkpt lat="43.41813" lon="2.24401">
        <ele>800.92</ele>
        <time>2015-12-19T10:52:56Z</time>
      </trkpt>
      <trkpt lat="43.41806" lon="2.24415">
        <ele>802.36</ele>
        <time>2015-12-19T10:53:04Z</time>
      </trkpt>
      <trkpt lat="43.418" lon="2.24428">
        <ele>803.8</ele>
        <time>2015-12-19T10:53:12Z</time>
      </trkpt>
      <trkpt lat="43.41795" lon="2.2444">
        <ele>806.2</ele>
        <time>2015-12-19T10:53:20Z</time>
      </trkpt>
      <trkpt lat="43.4179" lon="2.24452">
        <ele>805.72</ele>
        <time>2015-12-19T10:53:26Z</time>
      </trkpt>
      <trkpt lat="43.41778" lon="2.24463">
        <ele>807.16</ele>
        <time>2015-12-19T10:53:34Z</time>
      </trkpt>
      <trkpt lat="43.41773" lon="2.24473">
        <ele>808.61</ele>
        <time>2015-12-19T10:53:41Z</time>
      </trkpt>
      <trkpt lat="43.41771" lon="2.24481">
        <ele>809.09</ele>
        <time>2015-12-19T10:53:46Z</time>
      </trkpt>
      <trkpt lat="43.41769" lon="2.24485">
        <ele>809.57</ele>
        <time>2015-12-19T10:53:48Z</time>
      </trkpt>
      <trkpt lat="43.41764" lon="2.24499">
        <ele>811.49</ele>
        <time>2015-12-19T10:53:55Z</time>
      </trkpt>
      <trkpt lat="43.41759" lon="2.24504">
        <ele>812.45</ele>
        <time>2015-12-19T10:53:59Z</time>
      </trkpt>
      <trkpt lat="43.41757" lon="2.24505">
        <ele>811.97</ele>
        <time>2015-12-19T10:54:00Z</time>
      </trkpt>
      <trkpt lat="43.41756" lon="2.24507">
        <ele>812.45</ele>
        <time>2015-12-19T10:54:01Z</time>
      </trkpt>
      <trkpt lat="43.41755" lon="2.24508">
        <ele>812.45</ele>
        <time>2015-12-19T10:54:02Z</time>
      </trkpt>
      <trkpt lat="43.41754" lon="2.24508">
        <ele>812.93</ele>
        <time>2015-12-19T10:54:03Z</time>
      </trkpt>
      <trkpt lat="43.41745" lon="2.24513">
        <ele>814.37</ele>
        <time>2015-12-19T10:54:09Z</time>
      </trkpt>
      <trkpt lat="43.41733" lon="2.2452">
        <ele>815.34</ele>
        <time>2015-12-19T10:54:16Z</time>
      </trkpt>
      <trkpt lat="43.41731" lon="2.24521">
        <ele>815.82</ele>
        <time>2015-12-19T10:54:17Z</time>
      </trkpt>
      <trkpt lat="43.4172" lon="2.2453">
        <ele>816.3</ele>
        <time>2015-12-19T10:54:24Z</time>
      </trkpt>
      <trkpt lat="43.41706" lon="2.24539">
        <ele>817.74</ele>
        <time>2015-12-19T10:54:33Z</time>
      </trkpt>
      <trkpt lat="43.41693" lon="2.2455">
        <ele>820.14</ele>
        <time>2015-12-19T10:54:41Z</time>
      </trkpt>
      <trkpt lat="43.41681" lon="2.2456">
        <ele>821.1</ele>
        <time>2015-12-19T10:54:49Z</time>
      </trkpt>
      <trkpt lat="43.41669" lon="2.2457">
        <ele>823.03</ele>
        <time>2015-12-19T10:54:58Z</time>
      </trkpt>
      <trkpt lat="43.41651" lon="2.24578">
        <ele>823.99</ele>
        <time>2015-12-19T10:55:07Z</time>
      </trkpt>
      <trkpt lat="43.41633" lon="2.24585">
        <ele>824.47</ele>
        <time>2015-12-19T10:55:15Z</time>
      </trkpt>
      <trkpt lat="43.41616" lon="2.24594">
        <ele>825.43</ele>
        <time>2015-12-19T10:55:23Z</time>
      </trkpt>
      <trkpt lat="43.41601" lon="2.24603">
        <ele>826.39</ele>
        <time>2015-12-19T10:55:30Z</time>
      </trkpt>
      <trkpt lat="43.41597" lon="2.24608">
        <ele>826.39</ele>
        <time>2015-12-19T10:55:33Z</time>
      </trkpt>
      <trkpt lat="43.41595" lon="2.2461">
        <ele>826.87</ele>
        <time>2015-12-19T10:55:34Z</time>
      </trkpt>
      <trkpt lat="43.41587" lon="2.2462">
        <ele>826.87</ele>
        <time>2015-12-19T10:55:40Z</time>
      </trkpt>
      <trkpt lat="43.41583" lon="2.24626">
        <ele>826.87</ele>
        <time>2015-12-19T10:55:43Z</time>
      </trkpt>
      <trkpt lat="43.41581" lon="2.24628">
        <ele>826.87</ele>
        <time>2015-12-19T10:55:44Z</time>
      </trkpt>
      <trkpt lat="43.41571" lon="2.24643">
        <ele>827.35</ele>
        <time>2015-12-19T10:55:49Z</time>
      </trkpt>
      <trkpt lat="43.41568" lon="2.24645">
        <ele>826.87</ele>
        <time>2015-12-19T10:55:50Z</time>
      </trkpt>
      <trkpt lat="43.41565" lon="2.24647">
        <ele>827.35</ele>
        <time>2015-12-19T10:55:51Z</time>
      </trkpt>
      <trkpt lat="43.41554" lon="2.24654">
        <ele>826.87</ele>
        <time>2015-12-19T10:55:55Z</time>
      </trkpt>
      <trkpt lat="43.41552" lon="2.24656">
        <ele>826.87</ele>
        <time>2015-12-19T10:55:56Z</time>
      </trkpt>
      <trkpt lat="43.41552" lon="2.24659">
        <ele>826.87</ele>
        <time>2015-12-19T10:55:57Z</time>
      </trkpt>
      <trkpt lat="43.41553" lon="2.24662">
        <ele>826.39</ele>
        <time>2015-12-19T10:56:01Z</time>
      </trkpt>
      <trkpt lat="43.4155" lon="2.24676">
        <ele>825.43</ele>
        <time>2015-12-19T11:02:45Z</time>
      </trkpt>
      <trkpt lat="43.41565" lon="2.247">
        <ele>826.39</ele>
        <time>2015-12-19T11:02:52Z</time>
      </trkpt>
      <trkpt lat="43.41582" lon="2.24727">
        <ele>826.87</ele>
        <time>2015-12-19T11:03:00Z</time>
      </trkpt>
      <trkpt lat="43.41589" lon="2.24753">
        <ele>827.35</ele>
        <time>2015-12-19T11:03:07Z</time>
      </trkpt>
      <trkpt lat="43.41589" lon="2.24775">
        <ele>828.31</ele>
        <time>2015-12-19T11:03:14Z</time>
      </trkpt>
      <trkpt lat="43.41588" lon="2.24793">
        <ele>829.27</ele>
        <time>2015-12-19T11:03:20Z</time>
      </trkpt>
      <trkpt lat="43.4159" lon="2.24815">
        <ele>830.72</ele>
        <time>2015-12-19T11:03:26Z</time>
      </trkpt>
      <trkpt lat="43.4159" lon="2.24833">
        <ele>832.16</ele>
        <time>2015-12-19T11:03:30Z</time>
      </trkpt>
      <trkpt lat="43.41591" lon="2.24861">
        <ele>834.56</ele>
        <time>2015-12-19T11:03:38Z</time>
      </trkpt>
      <trkpt lat="43.41593" lon="2.24888">
        <ele>836</ele>
        <time>2015-12-19T11:03:46Z</time>
      </trkpt>
      <trkpt lat="43.41594" lon="2.24915">
        <ele>838.41</ele>
        <time>2015-12-19T11:03:55Z</time>
      </trkpt>
      <trkpt lat="43.41599" lon="2.24934">
        <ele>839.37</ele>
        <time>2015-12-19T11:04:02Z</time>
      </trkpt>
      <trkpt lat="43.416" lon="2.24936">
        <ele>839.37</ele>
        <time>2015-12-19T11:04:03Z</time>
      </trkpt>
      <trkpt lat="43.41604" lon="2.24941">
        <ele>840.81</ele>
        <time>2015-12-19T11:04:06Z</time>
      </trkpt>
      <trkpt lat="43.41605" lon="2.24942">
        <ele>840.81</ele>
        <time>2015-12-19T11:04:07Z</time>
      </trkpt>
      <trkpt lat="43.41606" lon="2.24943">
        <ele>841.29</ele>
        <time>2015-12-19T11:04:08Z</time>
      </trkpt>
      <trkpt lat="43.41619" lon="2.24957">
        <ele>843.21</ele>
        <time>2015-12-19T11:04:17Z</time>
      </trkpt>
      <trkpt lat="43.41628" lon="2.24964">
        <ele>845.14</ele>
        <time>2015-12-19T11:04:24Z</time>
      </trkpt>
      <trkpt lat="43.41641" lon="2.24969">
        <ele>846.58</ele>
        <time>2015-12-19T11:04:32Z</time>
      </trkpt>
      <trkpt lat="43.41652" lon="2.24972">
        <ele>848.02</ele>
        <time>2015-12-19T11:04:39Z</time>
      </trkpt>
      <trkpt lat="43.41667" lon="2.24975">
        <ele>848.5</ele>
        <time>2015-12-19T11:04:47Z</time>
      </trkpt>
      <trkpt lat="43.41686" lon="2.24977">
        <ele>849.94</ele>
        <time>2015-12-19T11:04:56Z</time>
      </trkpt>
      <trkpt lat="43.41689" lon="2.24977">
        <ele>846.1</ele>
        <time>2015-12-19T11:04:57Z</time>
      </trkpt>
      <trkpt lat="43.41692" lon="2.24977">
        <ele>851.38</ele>
        <time>2015-12-19T11:04:58Z</time>
      </trkpt>
      <trkpt lat="43.41697" lon="2.24978">
        <ele>854.75</ele>
        <time>2015-12-19T11:05:00Z</time>
      </trkpt>
      <trkpt lat="43.41701" lon="2.24978">
        <ele>849.94</ele>
        <time>2015-12-19T11:05:02Z</time>
      </trkpt>
      <trkpt lat="43.41704" lon="2.24979">
        <ele>847.06</ele>
        <time>2015-12-19T11:05:03Z</time>
      </trkpt>
      <trkpt lat="43.41706" lon="2.24979">
        <ele>852.83</ele>
        <time>2015-12-19T11:05:04Z</time>
      </trkpt>
      <trkpt lat="43.41716" lon="2.2498">
        <ele>848.98</ele>
        <time>2015-12-19T11:05:08Z</time>
      </trkpt>
      <trkpt lat="43.41721" lon="2.2498">
        <ele>852.35</ele>
        <time>2015-12-19T11:05:10Z</time>
      </trkpt>
      <trkpt lat="43.41723" lon="2.24979">
        <ele>850.9</ele>
        <time>2015-12-19T11:05:11Z</time>
      </trkpt>
      <trkpt lat="43.41741" lon="2.24971">
        <ele>852.35</ele>
        <time>2015-12-19T11:05:19Z</time>
      </trkpt>
      <trkpt lat="43.41757" lon="2.2496">
        <ele>854.75</ele>
        <time>2015-12-19T11:05:26Z</time>
      </trkpt>
      <trkpt lat="43.41777" lon="2.24956">
        <ele>856.19</ele>
        <time>2015-12-19T11:05:34Z</time>
      </trkpt>
      <trkpt lat="43.41792" lon="2.2496">
        <ele>856.67</ele>
        <time>2015-12-19T11:05:41Z</time>
      </trkpt>
      <trkpt lat="43.41811" lon="2.24966">
        <ele>857.63</ele>
        <time>2015-12-19T11:05:50Z</time>
      </trkpt>
      <trkpt lat="43.41829" lon="2.24972">
        <ele>857.63</ele>
        <time>2015-12-19T11:05:58Z</time>
      </trkpt>
      <trkpt lat="43.41846" lon="2.24977">
        <ele>859.08</ele>
        <time>2015-12-19T11:06:06Z</time>
      </trkpt>
      <trkpt lat="43.41863" lon="2.24984">
        <ele>860.04</ele>
        <time>2015-12-19T11:06:14Z</time>
      </trkpt>
      <trkpt lat="43.41876" lon="2.2499">
        <ele>860.52</ele>
        <time>2015-12-19T11:06:21Z</time>
      </trkpt>
      <trkpt lat="43.41892" lon="2.24997">
        <ele>861.96</ele>
        <time>2015-12-19T11:06:28Z</time>
      </trkpt>
      <trkpt lat="43.41907" lon="2.25004">
        <ele>862.92</ele>
        <time>2015-12-19T11:06:35Z</time>
      </trkpt>
      <trkpt lat="43.41926" lon="2.25014">
        <ele>864.84</ele>
        <time>2015-12-19T11:06:44Z</time>
      </trkpt>
      <trkpt lat="43.41945" lon="2.25021">
        <ele>866.77</ele>
        <time>2015-12-19T11:06:53Z</time>
      </trkpt>
      <trkpt lat="43.41949" lon="2.25024">
        <ele>867.73</ele>
        <time>2015-12-19T11:06:55Z</time>
      </trkpt>
      <trkpt lat="43.41951" lon="2.25024">
        <ele>867.73</ele>
        <time>2015-12-19T11:06:56Z</time>
      </trkpt>
      <trkpt lat="43.41953" lon="2.25025">
        <ele>867.73</ele>
        <time>2015-12-19T11:06:57Z</time>
      </trkpt>
      <trkpt lat="43.4197" lon="2.2503">
        <ele>869.17</ele>
        <time>2015-12-19T11:07:04Z</time>
      </trkpt>
      <trkpt lat="43.41988" lon="2.25038">
        <ele>870.61</ele>
        <time>2015-12-19T11:07:13Z</time>
      </trkpt>
      <trkpt lat="43.42007" lon="2.25045">
        <ele>873.01</ele>
        <time>2015-12-19T11:07:22Z</time>
      </trkpt>
      <trkpt lat="43.42025" lon="2.25057">
        <ele>873.5</ele>
        <time>2015-12-19T11:07:31Z</time>
      </trkpt>
      <trkpt lat="43.4204" lon="2.25072">
        <ele>875.9</ele>
        <time>2015-12-19T11:07:40Z</time>
      </trkpt>
      <trkpt lat="43.42053" lon="2.25087">
        <ele>876.86</ele>
        <time>2015-12-19T11:07:48Z</time>
      </trkpt>
      <trkpt lat="43.42064" lon="2.25103">
        <ele>879.26</ele>
        <time>2015-12-19T11:07:56Z</time>
      </trkpt>
      <trkpt lat="43.42074" lon="2.25121">
        <ele>880.71</ele>
        <time>2015-12-19T11:08:03Z</time>
      </trkpt>
      <trkpt lat="43.4208" lon="2.25137">
        <ele>882.63</ele>
        <time>2015-12-19T11:08:10Z</time>
      </trkpt>
      <trkpt lat="43.42085" lon="2.25148">
        <ele>883.11</ele>
        <time>2015-12-19T11:08:17Z</time>
      </trkpt>
      <trkpt lat="43.42088" lon="2.25168">
        <ele>884.55</ele>
        <time>2015-12-19T11:08:25Z</time>
      </trkpt>
      <trkpt lat="43.42087" lon="2.25191">
        <ele>885.99</ele>
        <time>2015-12-19T11:08:33Z</time>
      </trkpt>
      <trkpt lat="43.42086" lon="2.25211">
        <ele>885.51</ele>
        <time>2015-12-19T11:08:40Z</time>
      </trkpt>
      <trkpt lat="43.42086" lon="2.2523">
        <ele>885.99</ele>
        <time>2015-12-19T11:08:45Z</time>
      </trkpt>
      <trkpt lat="43.42087" lon="2.25248">
        <ele>886.47</ele>
        <time>2015-12-19T11:08:51Z</time>
      </trkpt>
      <trkpt lat="43.42087" lon="2.25273">
        <ele>886.95</ele>
        <time>2015-12-19T11:08:58Z</time>
      </trkpt>
      <trkpt lat="43.4209" lon="2.25301">
        <ele>887.91</ele>
        <time>2015-12-19T11:09:05Z</time>
      </trkpt>
      <trkpt lat="43.42098" lon="2.25335">
        <ele>889.36</ele>
        <time>2015-12-19T11:09:14Z</time>
      </trkpt>
      <trkpt lat="43.42107" lon="2.25366">
        <ele>890.32</ele>
        <time>2015-12-19T11:09:22Z</time>
      </trkpt>
      <trkpt lat="43.42115" lon="2.25388">
        <ele>891.28</ele>
        <time>2015-12-19T11:09:29Z</time>
      </trkpt>
      <trkpt lat="43.42122" lon="2.25427">
        <ele>891.76</ele>
        <time>2015-12-19T11:11:29Z</time>
      </trkpt>
      <trkpt lat="43.42113" lon="2.25467">
        <ele>889.84</ele>
        <time>2015-12-19T11:11:36Z</time>
      </trkpt>
      <trkpt lat="43.421" lon="2.25498">
        <ele>889.36</ele>
        <time>2015-12-19T11:11:41Z</time>
      </trkpt>
      <trkpt lat="43.42075" lon="2.25531">
        <ele>887.91</ele>
        <time>2015-12-19T11:11:47Z</time>
      </trkpt>
      <trkpt lat="43.42047" lon="2.25565">
        <ele>885.99</ele>
        <time>2015-12-19T11:11:52Z</time>
      </trkpt>
      <trkpt lat="43.42001" lon="2.25623">
        <ele>883.59</ele>
        <time>2015-12-19T11:11:59Z</time>
      </trkpt>
      <trkpt lat="43.41988" lon="2.25639">
        <ele>883.11</ele>
        <time>2015-12-19T11:12:01Z</time>
      </trkpt>
      <trkpt lat="43.41946" lon="2.25694">
        <ele>879.74</ele>
        <time>2015-12-19T11:12:08Z</time>
      </trkpt>
      <trkpt lat="43.41916" lon="2.25743">
        <ele>879.74</ele>
        <time>2015-12-19T11:12:14Z</time>
      </trkpt>
      <trkpt lat="43.41905" lon="2.25758">
        <ele>879.26</ele>
        <time>2015-12-19T11:12:16Z</time>
      </trkpt>
      <trkpt lat="43.41853" lon="2.25809">
        <ele>878.78</ele>
        <time>2015-12-19T11:12:24Z</time>
      </trkpt>
      <trkpt lat="43.41823" lon="2.25838">
        <ele>880.22</ele>
        <time>2015-12-19T11:12:29Z</time>
      </trkpt>
      <trkpt lat="43.41817" lon="2.25843">
        <ele>879.74</ele>
        <time>2015-12-19T11:12:30Z</time>
      </trkpt>
      <trkpt lat="43.41811" lon="2.25847">
        <ele>881.19</ele>
        <time>2015-12-19T11:12:31Z</time>
      </trkpt>
      <trkpt lat="43.41793" lon="2.25859">
        <ele>880.71</ele>
        <time>2015-12-19T11:12:34Z</time>
      </trkpt>
      <trkpt lat="43.4174" lon="2.2589">
        <ele>878.78</ele>
        <time>2015-12-19T11:12:42Z</time>
      </trkpt>
      <trkpt lat="43.41718" lon="2.25904">
        <ele>876.86</ele>
        <time>2015-12-19T11:12:45Z</time>
      </trkpt>
      <trkpt lat="43.41678" lon="2.25936">
        <ele>873.98</ele>
        <time>2015-12-19T11:12:50Z</time>
      </trkpt>
      <trkpt lat="43.4163" lon="2.2598">
        <ele>870.61</ele>
        <time>2015-12-19T11:12:56Z</time>
      </trkpt>
      <trkpt lat="43.41598" lon="2.26011">
        <ele>868.21</ele>
        <time>2015-12-19T11:13:00Z</time>
      </trkpt>
      <trkpt lat="43.41558" lon="2.26052">
        <ele>864.36</ele>
        <time>2015-12-19T11:13:05Z</time>
      </trkpt>
      <trkpt lat="43.41526" lon="2.26082">
        <ele>861.48</ele>
        <time>2015-12-19T11:13:09Z</time>
      </trkpt>
      <trkpt lat="43.41519" lon="2.2609">
        <ele>861.48</ele>
        <time>2015-12-19T11:13:10Z</time>
      </trkpt>
      <trkpt lat="43.41498" lon="2.26117">
        <ele>859.08</ele>
        <time>2015-12-19T11:13:13Z</time>
      </trkpt>
      <trkpt lat="43.41477" lon="2.2616">
        <ele>855.71</ele>
        <time>2015-12-19T11:13:17Z</time>
      </trkpt>
      <trkpt lat="43.41465" lon="2.26181">
        <ele>854.75</ele>
        <time>2015-12-19T11:13:19Z</time>
      </trkpt>
      <trkpt lat="43.41449" lon="2.26213">
        <ele>850.9</ele>
        <time>2015-12-19T11:13:22Z</time>
      </trkpt>
      <trkpt lat="43.41443" lon="2.26223">
        <ele>850.42</ele>
        <time>2015-12-19T11:13:23Z</time>
      </trkpt>
      <trkpt lat="43.41437" lon="2.2623">
        <ele>849.94</ele>
        <time>2015-12-19T11:13:24Z</time>
      </trkpt>
      <trkpt lat="43.41386" lon="2.2627">
        <ele>846.58</ele>
        <time>2015-12-19T11:13:30Z</time>
      </trkpt>
      <trkpt lat="43.4137" lon="2.2629">
        <ele>845.62</ele>
        <time>2015-12-19T11:13:32Z</time>
      </trkpt>
      <trkpt lat="43.41345" lon="2.26319">
        <ele>843.21</ele>
        <time>2015-12-19T11:13:35Z</time>
      </trkpt>
      <trkpt lat="43.41307" lon="2.26352">
        <ele>839.37</ele>
        <time>2015-12-19T11:13:39Z</time>
      </trkpt>
      <trkpt lat="43.41296" lon="2.26359">
        <ele>838.89</ele>
        <time>2015-12-19T11:13:40Z</time>
      </trkpt>
      <trkpt lat="43.41275" lon="2.26369">
        <ele>836.96</ele>
        <time>2015-12-19T11:13:42Z</time>
      </trkpt>
      <trkpt lat="43.4124" lon="2.26382">
        <ele>833.12</ele>
        <time>2015-12-19T11:13:45Z</time>
      </trkpt>
      <trkpt lat="43.41228" lon="2.26386">
        <ele>833.12</ele>
        <time>2015-12-19T11:13:46Z</time>
      </trkpt>
      <trkpt lat="43.41193" lon="2.26399">
        <ele>829.27</ele>
        <time>2015-12-19T11:13:49Z</time>
      </trkpt>
      <trkpt lat="43.41158" lon="2.26416">
        <ele>825.43</ele>
        <time>2015-12-19T11:13:52Z</time>
      </trkpt>
      <trkpt lat="43.41135" lon="2.26425">
        <ele>823.51</ele>
        <time>2015-12-19T11:13:54Z</time>
      </trkpt>
      <trkpt lat="43.41089" lon="2.26433">
        <ele>820.62</ele>
        <time>2015-12-19T11:13:58Z</time>
      </trkpt>
      <trkpt lat="43.41068" lon="2.26437">
        <ele>818.22</ele>
        <time>2015-12-19T11:14:00Z</time>
      </trkpt>
      <trkpt lat="43.41058" lon="2.26442">
        <ele>817.26</ele>
        <time>2015-12-19T11:14:01Z</time>
      </trkpt>
      <trkpt lat="43.41048" lon="2.26448">
        <ele>816.78</ele>
        <time>2015-12-19T11:14:02Z</time>
      </trkpt>
      <trkpt lat="43.41039" lon="2.26456">
        <ele>816.78</ele>
        <time>2015-12-19T11:14:03Z</time>
      </trkpt>
      <trkpt lat="43.41013" lon="2.26479">
        <ele>815.34</ele>
        <time>2015-12-19T11:14:06Z</time>
      </trkpt>
      <trkpt lat="43.40944" lon="2.2654">
        <ele>811.97</ele>
        <time>2015-12-19T11:14:14Z</time>
      </trkpt>
      <trkpt lat="43.40926" lon="2.26556">
        <ele>810.53</ele>
        <time>2015-12-19T11:14:16Z</time>
      </trkpt>
      <trkpt lat="43.40912" lon="2.26574">
        <ele>809.57</ele>
        <time>2015-12-19T11:14:18Z</time>
      </trkpt>
    </trkseg>
  </trk>
</gpx>